M I D A S
Marine Information and Data Acquisition System
Tripno 1555 of the Zeeleeuw from 2008-08-05 05:30:06 to 2008-08-05 16:48:53
Back to CruiseResearch ActivitiesStationsMapUnderway DataData graphs

EquipmentUnitsComment
TimeDGPSUTC
LatitudeDGPSDM.mWGS84
LongitudeDGPSDM.mWGS84
TemperatureSBE03/SBE38deg celciusITS90
ConductivitySBE21S/mITS90
SalinitySBE21 Practical Salinity Units
ChlorophylAChelsea fluorimeterg/lCalibrated in Aceton
Missing or incorrect values are displayed as -999
Sea surface data collected by the RV Zeeleeuw from 2008-08-05 05:30:06 to 2008-08-05 16:53:47
                                                                                    Next 1000 lines
Time Latitude Longitude Temperature Conductivity Salinity ChlorophylA
2008-08-05 05:30:16 51°13.623 2°56.046 22.5341 2.135663 14.003175 -1.418457
2008-08-05 05:30:21 51°13.623 2°56.044 22.514 2.135663 14.003175 -1.418457
2008-08-05 05:30:26 51°13.624 2°56.041 22.5277 2.135559 14.002188 -1.418457
2008-08-05 05:30:31 51°13.625 2°56.038 22.5153 2.135559 14.002188 -1.418457
2008-08-05 05:30:36 51°13.626 2°56.034 22.5393 2.135559 14.002436 -1.418457
2008-08-05 05:30:41 51°13.627 2°56.029 22.5094 2.135559 14.002436 -1.418457
2008-08-05 05:30:46 51°13.629 2°56.024 22.5219 2.135456 14.001697 -1.383633
2008-08-05 05:30:51 51°13.631 2°56.019 22.5231 2.135456 14.001697 -1.383633
2008-08-05 05:30:56 51°13.633 2°56.013 22.5276 2.135456 14.001697 -1.383633
2008-08-05 05:31:01 51°13.635 2°56.006 22.5328 2.135456 14.001697 -1.383633
2008-08-05 05:31:06 51°13.637 2°55.999 22.5444 2.135456 14.001945 -1.418457
2008-08-05 05:31:11 51°13.639 2°55.992 22.5449 2.135456 14.002441 -1.383633
2008-08-05 05:31:16 51°13.641 2°55.985 22.5459 2.135456 14.002441 -1.418457
2008-08-05 05:31:21 51°13.643 2°55.978 22.5355 2.135456 14.002441 -1.418457
2008-08-05 05:31:26 51°13.645 2°55.97 22.5389 2.135456 14.002441 -1.383633
2008-08-05 05:31:31 51°13.647 2°55.962 22.5341 2.135353 14.001701 -1.383633
2008-08-05 05:31:37 51°13.65 2°55.952 22.5436 2.135353 14.001701 -1.383633
2008-08-05 05:31:41 51°13.652 2°55.945 22.5408 2.135353 14.001701 -1.383633
2008-08-05 05:31:46 51°13.655 2°55.937 22.547 2.135353 14.001701 -1.383633
2008-08-05 05:31:51 51°13.658 2°55.928 22.5464 2.135353 14.001701 -1.383633
2008-08-05 05:31:56 51°13.66 2°55.919 22.5503 2.135353 14.002197 -1.383633
2008-08-05 05:32:01 51°13.663 2°55.911 22.5484 2.135353 14.002197 -1.383633
2008-08-05 05:32:06 51°13.666 2°55.902 22.5489 2.135353 14.002446 -1.383633
2008-08-05 05:32:11 51°13.669 2°55.893 22.5686 2.135353 14.002446 -1.418457
2008-08-05 05:32:16 51°13.672 2°55.884 22.5729 2.135353 14.002942 -1.383633
2008-08-05 05:32:21 51°13.675 2°55.876 22.5798 2.135353 14.002942 -1.383633
2008-08-05 05:32:26 51°13.677 2°55.868 22.5753 2.135353 14.00319 -1.383633
2008-08-05 05:32:31 51°13.68 2°55.86 22.5717 2.135353 14.003438 -1.418457
2008-08-05 05:32:36 51°13.683 2°55.852 22.5616 2.135353 14.003438 -1.383633
2008-08-05 05:32:41 51°13.685 2°55.844 22.5549 2.135353 14.00319 -1.418457
2008-08-05 05:32:46 51°13.687 2°55.837 22.5547 2.135249 14.00245 -1.418457
2008-08-05 05:32:51 51°13.689 2°55.83 22.5532 2.135249 14.00245 -1.418457
2008-08-05 05:32:56 51°13.691 2°55.822 22.5557 2.135249 14.00245 -1.383633
2008-08-05 05:33:01 51°13.693 2°55.815 22.5517 2.135249 14.00245 -1.418457
2008-08-05 05:33:06 51°13.695 2°55.808 22.5532 2.135249 14.002698 -1.383633
2008-08-05 05:33:11 51°13.697 2°55.801 22.5518 2.135249 14.002698 -1.383633
2008-08-05 05:33:16 51°13.698 2°55.794 22.5515 2.135249 14.002947 -1.418457
2008-08-05 05:33:21 51°13.699 2°55.787 22.5554 2.135249 14.002947 -1.418457
2008-08-05 05:33:26 51°13.7 2°55.781 22.5594 2.135249 14.002947 -1.418457
2008-08-05 05:33:31 51°13.701 2°55.774 22.5685 2.135146 14.002455 -1.418457
2008-08-05 05:33:36 51°13.702 2°55.768 22.5584 2.135146 14.002455 -1.418457
2008-08-05 05:33:41 51°13.703 2°55.762 22.5595 2.135146 14.002455 -1.418457
2008-08-05 05:33:46 51°13.703 2°55.757 22.5549 2.135146 14.002703 -1.418457
2008-08-05 05:33:51 51°13.704 2°55.751 22.5541 2.135146 14.002703 -1.418457
2008-08-05 05:33:56 51°13.704 2°55.746 22.5501 2.135146 14.002703 -1.383633
2008-08-05 05:34:01 51°13.704 2°55.742 22.5576 2.135146 14.002703 -1.383633
2008-08-05 05:34:06 51°13.705 2°55.738 22.5596 2.135146 14.002703 -1.418457
2008-08-05 05:34:11 51°13.705 2°55.734 22.5539 2.135146 14.002951 -1.418457
2008-08-05 05:34:16 51°13.705 2°55.73 22.5584 2.135043 14.002212 -1.418457
2008-08-05 05:34:21 51°13.705 2°55.727 22.5564 2.135043 14.002212 -1.418457
2008-08-05 05:34:26 51°13.705 2°55.724 22.5551 2.135043 14.00246 -1.383633
2008-08-05 05:34:31 51°13.705 2°55.721 22.5653 2.135043 14.00246 -1.383633
2008-08-05 05:34:36 51°13.706 2°55.719 22.5672 2.135043 14.002708 -1.418457
2008-08-05 05:34:41 51°13.706 2°55.718 22.5645 2.135043 14.002708 -1.383633
2008-08-05 05:34:46 51°13.706 2°55.718 22.5766 2.135043 14.002956 -1.383633
2008-08-05 05:34:51 51°13.707 2°55.718 22.5669 2.135043 14.002956 -1.383633
2008-08-05 05:34:56 51°13.708 2°55.719 22.5697 2.135043 14.003204 -1.418457
2008-08-05 05:35:01 51°13.709 2°55.72 22.5753 2.135043 14.002956 -1.418457
2008-08-05 05:35:06 51°13.711 2°55.721 22.5848 2.13494 14.002217 -1.418457
2008-08-05 05:35:11 51°13.713 2°55.722 22.5876 2.13494 14.002465 -1.383633
2008-08-05 05:35:16 51°13.715 2°55.724 22.5894 2.13494 14.002713 -1.383633
2008-08-05 05:35:21 51°13.718 2°55.725 22.6006 2.13494 14.002713 -1.383633
2008-08-05 05:35:26 51°13.721 2°55.726 22.6086 2.13494 14.002961 -1.383633
2008-08-05 05:35:31 51°13.725 2°55.727 22.6142 2.135043 14.003949 -1.383633
2008-08-05 05:35:36 51°13.73 2°55.727 22.6212 2.135146 14.005433 -1.418457
2008-08-05 05:35:41 51°13.735 2°55.725 22.6333 2.135146 14.005681 -1.383633
2008-08-05 05:35:46 51°13.742 2°55.722 22.6347 2.135043 14.004694 -1.418457
2008-08-05 05:35:51 51°13.748 2°55.717 22.5907 2.135043 14.004694 -1.418457
2008-08-05 05:35:56 51°13.755 2°55.711 22.5754 2.13494 14.003458 -1.383633
2008-08-05 05:36:01 51°13.763 2°55.704 22.5373 2.134836 14.001974 -1.383633
2008-08-05 05:36:06 51°13.77 2°55.697 22.5156 2.13463 13.999502 -1.383633
2008-08-05 05:36:11 51°13.777 2°55.689 22.5151 2.13463 13.999006 -1.418457
2008-08-05 05:36:16 51°13.785 2°55.682 22.5439 2.13463 13.999006 -1.383633
2008-08-05 05:36:21 51°13.792 2°55.674 22.5463 2.13463 13.999006 -1.383633
2008-08-05 05:36:26 51°13.801 2°55.667 22.5341 2.13463 13.999006 -1.418457
2008-08-05 05:36:31 51°13.81 2°55.658 22.513 2.134526 13.998266 -1.383633
2008-08-05 05:36:36 51°13.819 2°55.65 22.505 2.134526 13.998514 -1.418457
2008-08-05 05:36:41 51°13.829 2°55.641 22.5143 2.13463 13.99975 -1.383633
2008-08-05 05:36:46 51°13.839 2°55.633 22.5559 2.13463 14.000246 -1.383633
2008-08-05 05:36:51 51°13.85 2°55.624 22.5205 2.13463 14.000246 -1.383633
2008-08-05 05:36:56 51°13.861 2°55.615 22.5233 2.134526 13.999755 -1.418457
2008-08-05 05:37:01 51°13.872 2°55.606 22.5252 2.13463 14.000743 -1.418457
2008-08-05 05:37:06 51°13.883 2°55.597 22.534 2.134526 14.000251 -1.383633
2008-08-05 05:37:11 51°13.893 2°55.587 22.498 2.134526 14.000251 -1.418457
2008-08-05 05:37:16 51°13.905 2°55.578 22.5287 2.134526 14.000499 -1.418457
2008-08-05 05:37:21 51°13.916 2°55.57 22.5426 2.134526 14.000499 -1.418457
2008-08-05 05:37:26 51°13.927 2°55.561 22.5421 2.13463 14.001735 -1.383633
2008-08-05 05:37:31 51°13.938 2°55.551 22.519 2.134526 14.001244 -1.383633
2008-08-05 05:37:36 51°13.949 2°55.542 22.5334 2.134526 14.001492 -1.383633
2008-08-05 05:37:41 51°13.96 2°55.532 22.5529 2.134526 14.00174 -1.383633
2008-08-05 05:37:46 51°13.971 2°55.523 22.5414 2.134526 14.001492 -1.418457
2008-08-05 05:37:51 51°13.983 2°55.514 22.5412 2.134526 14.001492 -1.418457
2008-08-05 05:37:56 51°13.994 2°55.504 22.5402 2.134526 14.001492 -1.383633
2008-08-05 05:38:01 51°14.005 2°55.495 22.5284 2.134423 14.000752 -1.383633
2008-08-05 05:38:06 51°14.017 2°55.486 22.5627 2.134423 14.000752 -1.383633
2008-08-05 05:38:11 51°14.028 2°55.476 22.5538 2.134423 14.001 -1.418457
2008-08-05 05:38:16 51°14.04 2°55.467 22.5063 2.134423 14.000752 -1.418457
2008-08-05 05:38:21 51°14.052 2°55.458 22.5005 2.134423 14.000752 -1.418457
2008-08-05 05:38:26 51°14.064 2°55.449 22.4998 2.13432 14.000013 -1.383633
2008-08-05 05:38:31 51°14.076 2°55.441 22.554 2.134423 14.001248 -1.418457
2008-08-05 05:38:36 51°14.088 2°55.433 22.5431 2.134423 14.001745 -1.383633
2008-08-05 05:38:41 51°14.099 2°55.424 22.5325 2.134423 14.001993 -1.418457
2008-08-05 05:38:46 51°14.111 2°55.415 22.5452 2.134423 14.001993 -1.418457
2008-08-05 05:38:51 51°14.123 2°55.407 22.5667 2.134423 14.001993 -1.418457
2008-08-05 05:38:56 51°14.135 2°55.397 22.5546 2.13432 14.001502 -1.418457
2008-08-05 05:39:01 51°14.146 2°55.388 22.5434 2.13432 14.001502 -1.383633
2008-08-05 05:39:06 51°14.158 2°55.379 22.5462 2.13432 14.001502 -1.418457
2008-08-05 05:39:11 51°14.17 2°55.369 22.5548 2.13432 14.00175 -1.383633
2008-08-05 05:39:16 51°14.182 2°55.359 22.5436 2.13432 14.00175 -1.383633
2008-08-05 05:39:22 51°14.195 2°55.347 22.551 2.13432 14.00175 -1.383633
2008-08-05 05:39:26 51°14.204 2°55.339 22.5241 2.13432 14.00175 -1.418457
2008-08-05 05:39:31 51°14.214 2°55.329 22.5584 2.134216 14.000762 -1.418457
2008-08-05 05:39:36 51°14.224 2°55.32 22.5557 2.13432 14.001998 -1.383633
2008-08-05 05:39:41 51°14.234 2°55.31 22.5658 2.13432 14.002246 -1.383633
2008-08-05 05:39:46 51°14.243 2°55.301 22.5506 2.13432 14.002743 -1.383633
2008-08-05 05:39:51 51°14.251 2°55.291 22.5475 2.13432 14.002743 -1.383633
2008-08-05 05:39:56 51°14.259 2°55.282 22.5804 2.13432 14.002991 -1.383633
2008-08-05 05:40:01 51°14.267 2°55.273 22.5746 2.134423 14.004227 -1.383633
2008-08-05 05:40:06 51°14.275 2°55.264 22.5691 2.13432 14.003239 -1.418457
2008-08-05 05:40:11 51°14.282 2°55.254 22.5754 2.13432 14.002991 -1.383633
2008-08-05 05:40:16 51°14.289 2°55.245 22.5586 2.13432 14.002991 -1.383633
2008-08-05 05:40:21 51°14.295 2°55.236 22.5605 2.13432 14.002991 -1.383633
2008-08-05 05:40:26 51°14.301 2°55.226 22.5505 2.13432 14.002743 -1.418457
2008-08-05 05:40:31 51°14.307 2°55.216 22.5817 2.13432 14.002991 -1.418457
2008-08-05 05:40:36 51°14.313 2°55.207 22.5785 2.13432 14.003487 -1.383633
2008-08-05 05:40:41 51°14.319 2°55.197 22.5675 2.13432 14.003736 -1.383633
2008-08-05 05:40:46 51°14.324 2°55.187 22.5752 2.13432 14.003984 -1.418457
2008-08-05 05:40:51 51°14.33 2°55.176 22.5372 2.13432 14.003984 -1.418457
2008-08-05 05:40:56 51°14.336 2°55.166 22.5652 2.134217 14.002996 -1.418457
2008-08-05 05:41:01 51°14.341 2°55.154 22.571 2.13432 14.003984 -1.418457
2008-08-05 05:41:06 51°14.348 2°55.142 22.57 2.13432 14.004232 -1.383633
2008-08-05 05:41:11 51°14.354 2°55.129 22.5797 2.134217 14.003244 -1.383633
2008-08-05 05:41:16 51°14.361 2°55.114 22.5727 2.134113 14.002256 -1.418457
2008-08-05 05:41:22 51°14.369 2°55.095 22.5735 2.134113 14.002256 -1.418457
2008-08-05 05:41:26 51°14.375 2°55.082 22.5675 2.13401 14.000772 -1.383633
2008-08-05 05:41:31 51°14.383 2°55.064 22.5545 2.134113 14.001511 -1.418457
2008-08-05 05:41:36 51°14.392 2°55.046 22.5516 2.13401 14.000523 -1.383633
2008-08-05 05:41:41 51°14.401 2°55.027 22.5551 2.13401 14.00102 -1.418457
2008-08-05 05:41:46 51°14.411 2°55.007 22.498 2.133907 13.999535 -1.383633
2008-08-05 05:41:51 51°14.421 2°54.987 22.485 2.133907 13.999535 -1.383633
2008-08-05 05:41:56 51°14.432 2°54.967 22.5139 2.133907 13.999784 -1.418457
2008-08-05 05:42:01 51°14.444 2°54.949 22.5062 2.133907 14.00028 -1.383633
2008-08-05 05:42:06 51°14.457 2°54.931 22.4944 2.133803 13.999292 -1.418457
2008-08-05 05:42:11 51°14.47 2°54.913 22.49 2.133907 14.00028 -1.383633
2008-08-05 05:42:16 51°14.484 2°54.897 22.4997 2.133907 14.000776 -1.418457
2008-08-05 05:42:21 51°14.498 2°54.882 22.5089 2.133907 14.000776 -1.418457
2008-08-05 05:42:26 51°14.513 2°54.868 22.5005 2.13401 14.002261 -1.418457
2008-08-05 05:42:31 51°14.528 2°54.856 22.5137 2.13401 14.002261 -1.383633
2008-08-05 05:42:36 51°14.544 2°54.844 22.521 2.133907 14.000776 -1.418457
2008-08-05 05:42:41 51°14.559 2°54.833 22.5301 2.134113 14.002256 -1.418457
2008-08-05 05:42:46 51°14.576 2°54.822 22.5418 2.134113 14.002753 -1.383633
2008-08-05 05:42:51 51°14.591 2°54.811 22.4974 2.134113 14.002753 -1.383633
2008-08-05 05:42:56 51°14.607 2°54.799 22.527 2.133907 14.001273 -1.383633
2008-08-05 05:43:01 51°14.622 2°54.788 22.546 2.13401 14.002261 -1.418457
2008-08-05 05:43:07 51°14.641 2°54.774 22.5149 2.133907 14.001273 -1.383633
2008-08-05 05:43:12 51°14.657 2°54.762 22.5067 2.133907 14.001025 -1.418457
2008-08-05 05:43:17 51°14.673 2°54.75 22.4995 2.133803 14.000037 -1.383633
2008-08-05 05:43:22 51°14.688 2°54.739 22.5158 2.133803 14.000037 -1.383633
2008-08-05 05:43:27 51°14.705 2°54.728 22.5083 2.133907 14.000528 -1.383633
2008-08-05 05:43:32 51°14.72 2°54.717 22.5231 2.133803 13.999788 -1.383633
2008-08-05 05:43:37 51°14.736 2°54.706 22.4922 2.133803 13.999788 -1.418457
2008-08-05 05:43:42 51°14.752 2°54.696 22.5339 2.133803 14.000037 -1.418457
2008-08-05 05:43:47 51°14.768 2°54.685 22.5265 2.133803 14.00103 -1.383633
2008-08-05 05:43:52 51°14.784 2°54.675 22.5296 2.133803 14.00103 -1.383633
2008-08-05 05:43:57 51°14.8 2°54.666 22.5156 2.133907 14.002266 -1.383633
2008-08-05 05:44:02 51°14.817 2°54.657 22.4993 2.133907 14.002763 -1.418457
2008-08-05 05:44:07 51°14.833 2°54.647 22.5282 2.133907 14.003011 -1.418457
2008-08-05 05:44:12 51°14.849 2°54.638 22.5136 2.133803 14.001774 -1.383633
2008-08-05 05:44:17 51°14.865 2°54.628 22.5297 2.133907 14.002266 -1.383633
2008-08-05 05:44:22 51°14.881 2°54.618 22.5268 2.133907 14.002266 -1.383633
2008-08-05 05:44:27 51°14.898 2°54.608 22.5425 2.133803 14.001526 -1.383633
2008-08-05 05:44:32 51°14.913 2°54.598 22.5402 2.133907 14.003011 -1.418457
2008-08-05 05:44:37 51°14.929 2°54.586 22.5009 2.1337 14.001531 -1.383633
2008-08-05 05:44:42 51°14.945 2°54.575 22.5222 2.133803 14.002519 -1.418457
2008-08-05 05:44:47 51°14.96 2°54.563 22.5316 2.1337 14.002028 -1.383633
2008-08-05 05:44:52 51°14.975 2°54.551 22.533 2.1337 14.002028 -1.383633
2008-08-05 05:44:57 51°14.991 2°54.539 22.5298 2.1337 14.001283 -1.418457
2008-08-05 05:45:02 51°15.006 2°54.527 22.5121 2.1337 14.000538 -1.383633
2008-08-05 05:45:07 51°15.021 2°54.515 22.5203 2.133597 13.999302 -1.383633
2008-08-05 05:45:12 51°15.036 2°54.502 22.4999 2.1337 13.999793 -1.383633
2008-08-05 05:45:17 51°15.051 2°54.489 22.5247 2.133597 13.998805 -1.383633
2008-08-05 05:45:22 51°15.066 2°54.475 22.5088 2.133597 13.998805 -1.383633
2008-08-05 05:45:27 51°15.081 2°54.462 22.5298 2.133597 13.999302 -1.383633
2008-08-05 05:45:32 51°15.096 2°54.449 22.5218 2.1337 14.001283 -1.418457
2008-08-05 05:45:37 51°15.111 2°54.435 22.5113 2.133597 14.001784 -1.418457
2008-08-05 05:45:42 51°15.126 2°54.422 22.5175 2.133803 14.005997 -1.418457
2008-08-05 05:45:47 51°15.141 2°54.409 22.525 2.133803 14.008482 -1.383633
2008-08-05 05:45:52 51°15.156 2°54.396 22.5341 2.133803 14.008482 -1.383633
2008-08-05 05:45:57 51°15.172 2°54.382 22.5159 2.1337 14.008736 -1.383633
2008-08-05 05:46:02 51°15.187 2°54.369 22.5275 2.1337 14.006996 -1.418457
2008-08-05 05:46:07 51°15.202 2°54.356 22.5212 2.133597 14.00402 -1.383633
2008-08-05 05:46:12 51°15.217 2°54.342 22.5289 2.133493 14.001541 -1.418457
2008-08-05 05:46:17 51°15.232 2°54.329 22.5243 2.133597 14.000791 -1.418457
2008-08-05 05:46:22 51°15.247 2°54.315 22.5013 2.133597 14.000791 -1.418457
2008-08-05 05:46:27 51°15.261 2°54.301 22.5296 2.133493 13.999307 -1.418457
2008-08-05 05:46:32 51°15.276 2°54.287 22.5152 2.133597 14.000046 -1.383633
2008-08-05 05:46:37 51°15.291 2°54.274 22.4997 2.133597 14.00104 -1.383633
2008-08-05 05:46:42 51°15.306 2°54.26 22.523 2.133597 14.002281 -1.418457
2008-08-05 05:46:47 51°15.321 2°54.247 22.5132 2.133597 14.003523 -1.383633
2008-08-05 05:46:52 51°15.336 2°54.234 22.526 2.133597 14.003523 -1.383633
2008-08-05 05:46:57 51°15.351 2°54.22 22.5243 2.133493 14.003031 -1.383633
2008-08-05 05:47:02 51°15.366 2°54.207 22.5074 2.133494 14.003777 -1.418457
2008-08-05 05:47:07 51°15.381 2°54.193 22.5203 2.1337 14.007245 -1.418457
2008-08-05 05:47:12 51°15.396 2°54.179 22.5316 2.133597 14.009239 -1.383633
2008-08-05 05:47:17 51°15.411 2°54.165 22.5308 2.133494 14.009742 -1.383633
2008-08-05 05:47:22 51°15.426 2°54.151 22.5204 2.133494 14.009742 -1.383633
2008-08-05 05:47:27 51°15.441 2°54.138 22.5243 2.133597 14.013218 -1.418457
2008-08-05 05:47:32 51°15.456 2°54.124 22.5238 2.133494 14.012229 -1.383633
2008-08-05 05:47:37 51°15.471 2°54.111 22.5232 2.133494 14.012477 -1.418457
2008-08-05 05:47:42 51°15.486 2°54.097 22.5174 2.133494 14.013224 -1.383633
2008-08-05 05:47:47 51°15.501 2°54.084 22.533 2.133494 14.013473 -1.383633
2008-08-05 05:47:52 51°15.516 2°54.07 22.521 2.133494 14.013473 -1.383633
2008-08-05 05:47:57 51°15.531 2°54.056 22.5334 2.13339 14.012483 -1.383633
2008-08-05 05:48:02 51°15.546 2°54.043 22.5278 2.13339 14.011986 -1.383633
2008-08-05 05:48:07 51°15.561 2°54.029 22.5347 2.13339 14.012732 -1.383633
2008-08-05 05:48:12 51°15.576 2°54.015 22.5126 2.13339 14.014225 -1.383633
2008-08-05 05:48:17 51°15.591 2°54.002 22.5176 2.133494 14.017704 -1.383633
2008-08-05 05:48:22 51°15.606 2°53.988 22.5108 2.133494 14.017704 -1.383633
2008-08-05 05:48:27 51°15.621 2°53.974 22.5118 2.133391 14.016714 -1.383633
2008-08-05 05:48:32 51°15.636 2°53.96 22.5149 2.133391 14.018706 -1.383633
2008-08-05 05:48:37 51°15.651 2°53.947 22.5204 2.133391 14.021197 -1.383633
2008-08-05 05:48:42 51°15.666 2°53.933 22.5377 2.133184 14.020213 -1.418457
2008-08-05 05:48:47 51°15.681 2°53.92 22.5183 2.133391 14.021197 -1.383633
2008-08-05 05:48:52 51°15.696 2°53.906 22.5429 2.133391 14.021197 -1.383633
2008-08-05 05:48:57 51°15.71 2°53.892 22.5363 2.133287 14.017716 -1.383633
2008-08-05 05:49:02 51°15.725 2°53.877 22.5436 2.133287 14.014728 -1.418457
2008-08-05 05:49:07 51°15.739 2°53.862 22.5163 2.133184 14.010007 -1.383633
2008-08-05 05:49:12 51°15.754 2°53.848 22.5384 2.13308 14.007774 -1.383633
2008-08-05 05:49:17 51°15.768 2°53.833 22.5258 2.13308 14.007526 -1.383633
2008-08-05 05:49:22 51°15.783 2°53.819 22.5287 2.13308 14.007526 -1.383633
2008-08-05 05:49:27 51°15.798 2°53.805 22.5348 2.132977 14.007034 -1.383633
2008-08-05 05:49:32 51°15.813 2°53.791 22.5424 2.13308 14.010261 -1.383633
2008-08-05 05:49:37 51°15.828 2°53.776 22.5374 2.132977 14.011262 -1.383633
2008-08-05 05:49:42 51°15.842 2°53.762 22.5204 2.132977 14.014746 -1.383633
2008-08-05 05:49:47 51°15.857 2°53.747 22.5108 2.133081 14.018724 -1.383633
2008-08-05 05:49:52 51°15.871 2°53.733 22.5324 2.133081 14.018724 -1.383633
2008-08-05 05:49:57 51°15.886 2°53.718 22.5279 2.133081 14.019472 -1.383633
2008-08-05 05:50:02 51°15.901 2°53.705 22.5193 2.132977 14.017236 -1.383633
2008-08-05 05:50:07 51°15.916 2°53.691 22.5446 2.132977 14.017983 -1.383633
2008-08-05 05:50:12 51°15.931 2°53.678 22.5335 2.133081 14.018475 -1.383633
2008-08-05 05:50:17 51°15.946 2°53.664 22.5191 2.132977 14.017983 -1.418457
2008-08-05 05:50:22 51°15.962 2°53.651 22.53 2.132977 14.017983 -1.418457
2008-08-05 05:50:27 51°15.977 2°53.637 22.5296 2.132874 14.01799 -1.418457
2008-08-05 05:50:32 51°15.992 2°53.624 22.5391 2.132977 14.018731 -1.418457
2008-08-05 05:50:37 51°16.007 2°53.611 22.5406 2.132874 14.01799 -1.383633
2008-08-05 05:50:42 51°16.022 2°53.597 22.5395 2.132771 14.016999 -1.418457
2008-08-05 05:50:47 51°16.037 2°53.584 22.5238 2.132977 14.020225 -1.383633
2008-08-05 05:50:52 51°16.052 2°53.571 22.5359 2.132977 14.020225 -1.383633
2008-08-05 05:50:57 51°16.068 2°53.557 22.5362 2.132771 14.01949 -1.383633
2008-08-05 05:51:02 51°16.083 2°53.544 22.528 2.132771 14.020238 -1.383633
2008-08-05 05:51:07 51°16.098 2°53.531 22.5414 2.132771 14.022232 -1.383633
2008-08-05 05:51:12 51°16.113 2°53.517 22.5416 2.132668 14.021989 -1.418457
2008-08-05 05:51:17 51°16.128 2°53.504 22.5335 2.132668 14.023236 -1.383633
2008-08-05 05:51:22 51°16.144 2°53.49 22.5394 2.132668 14.023236 -1.383633
2008-08-05 05:51:27 51°16.159 2°53.477 22.5328 2.132668 14.022986 -1.383633
2008-08-05 05:51:32 51°16.174 2°53.463 22.5376 2.132564 14.021497 -1.383633
2008-08-05 05:51:37 51°16.189 2°53.45 22.5215 2.132461 14.020756 -1.418457
2008-08-05 05:51:42 51°16.205 2°53.437 22.5442 2.132564 14.02424 -1.383633
2008-08-05 05:51:47 51°16.22 2°53.424 22.5504 2.132564 14.026983 -1.383633
2008-08-05 05:51:52 51°16.235 2°53.41 22.5279 2.132564 14.026983 -1.383633
2008-08-05 05:51:57 51°16.25 2°53.397 22.5373 2.132564 14.02898 -1.383633
2008-08-05 05:52:02 51°16.265 2°53.383 22.5493 2.132461 14.028987 -1.383633
2008-08-05 05:52:07 51°16.28 2°53.369 22.5465 2.132358 14.028245 -1.418457
2008-08-05 05:52:12 51°16.295 2°53.355 22.5429 2.132255 14.026255 -1.383633
2008-08-05 05:52:17 51°16.31 2°53.341 22.5391 2.132254 14.02426 -1.418457
2008-08-05 05:52:22 51°16.325 2°53.327 22.5387 2.132254 14.02426 -1.418457
2008-08-05 05:52:27 51°16.34 2°53.313 22.5429 2.132151 14.021772 -1.383633
2008-08-05 05:52:32 51°16.355 2°53.298 22.5466 2.132151 14.020526 -1.383633
2008-08-05 05:52:37 51°16.37 2°53.284 22.5535 2.132151 14.021523 -1.383633
2008-08-05 05:52:42 51°16.385 2°53.27 22.5408 2.132254 14.02401 -1.383633
2008-08-05 05:52:47 51°16.4 2°53.256 22.5312 2.132151 14.02252 -1.418457
2008-08-05 05:52:52 51°16.414 2°53.241 22.5522 2.132151 14.02252 -1.418457
2008-08-05 05:52:57 51°16.429 2°53.227 22.5345 2.132151 14.02277 -1.383633
2008-08-05 05:53:02 51°16.444 2°53.213 22.5285 2.132048 14.023026 -1.418457
2008-08-05 05:53:07 51°16.459 2°53.199 22.5539 2.132048 14.02577 -1.383633
2008-08-05 05:53:12 51°16.473 2°53.184 22.5516 2.131945 14.028273 -1.383633
2008-08-05 05:53:17 51°16.488 2°53.17 22.5485 2.131841 14.029029 -1.383633
2008-08-05 05:53:22 51°16.503 2°53.156 22.5476 2.131841 14.029029 -1.383633
2008-08-05 05:53:27 51°16.518 2°53.141 22.5406 2.131841 14.029528 -1.383633
2008-08-05 05:53:32 51°16.533 2°53.127 22.5497 2.131738 14.027538 -1.383633
2008-08-05 05:53:37 51°16.548 2°53.113 22.5573 2.131841 14.027281 -1.383633
2008-08-05 05:53:42 51°16.562 2°53.099 22.5438 2.131841 14.029278 -1.418457
2008-08-05 05:53:47 51°16.577 2°53.085 22.5556 2.131635 14.026796 -1.383633
2008-08-05 05:53:52 51°16.593 2°53.071 22.5559 2.131635 14.026796 -1.383633
2008-08-05 05:53:57 51°16.608 2°53.057 22.5468 2.131738 14.026539 -1.383633
2008-08-05 05:54:02 51°16.622 2°53.043 22.5514 2.131635 14.023052 -1.383633
2008-08-05 05:54:07 51°16.637 2°53.029 22.5519 2.131635 14.021556 -1.383633
2008-08-05 05:54:12 51°16.652 2°53.015 22.5471 2.131738 14.0213 -1.383633
2008-08-05 05:54:17 51°16.667 2°53.001 22.5563 2.131635 14.022304 -1.383633
2008-08-05 05:54:22 51°16.682 2°52.987 22.5528 2.131635 14.022304 -1.383633
2008-08-05 05:54:27 51°16.697 2°52.973 22.5479 2.131531 14.023059 -1.418457
2008-08-05 05:54:32 51°16.712 2°52.959 22.5366 2.131531 14.023059 -1.383633
2008-08-05 05:54:37 51°16.727 2°52.945 22.5595 2.131531 14.023808 -1.418457
2008-08-05 05:54:42 51°16.742 2°52.932 22.558 2.131635 14.023052 -1.383633
2008-08-05 05:54:47 51°16.757 2°52.918 22.5491 2.131531 14.021562 -1.383633
2008-08-05 05:54:52 51°16.772 2°52.905 22.5582 2.131531 14.021562 -1.383633
2008-08-05 05:54:57 51°16.788 2°52.892 22.5617 2.131428 14.022068 -1.383633
2008-08-05 05:55:02 51°16.803 2°52.88 22.5455 2.131531 14.025305 -1.383633
2008-08-05 05:55:07 51°16.818 2°52.867 22.5516 2.131635 14.030042 -1.383633
2008-08-05 05:55:12 51°16.833 2°52.854 22.5492 2.131532 14.031048 -1.383633
2008-08-05 05:55:17 51°16.849 2°52.841 22.559 2.131532 14.032797 -1.418457
2008-08-05 05:55:22 51°16.864 2°52.828 22.5667 2.131532 14.032797 -1.418457
2008-08-05 05:55:27 51°16.88 2°52.815 22.5651 2.131428 14.033554 -1.418457
2008-08-05 05:55:32 51°16.895 2°52.802 22.5535 2.131325 14.032312 -1.383633
2008-08-05 05:55:37 51°16.91 2°52.789 22.5563 2.131222 14.03082 -1.418457
2008-08-05 05:55:42 51°16.926 2°52.777 22.5587 2.131222 14.03182 -1.383633
2008-08-05 05:55:47 51°16.941 2°52.765 22.5443 2.131119 14.033327 -1.383633
2008-08-05 05:55:52 51°16.957 2°52.753 22.551 2.131119 14.033327 -1.383633
2008-08-05 05:55:57 51°16.974 2°52.743 22.559 2.131119 14.035327 -1.418457
2008-08-05 05:56:02 51°16.99 2°52.733 22.5444 2.131325 14.043818 -1.383633
2008-08-05 05:56:07 51°17.007 2°52.725 22.557 2.131222 14.04608 -1.383633
2008-08-05 05:56:12 51°17.023 2°52.717 22.5414 2.131119 14.046089 -1.383633
2008-08-05 05:56:17 51°17.04 2°52.71 22.5619 2.131325 14.047825 -1.383633
2008-08-05 05:56:22 51°17.057 2°52.703 22.5579 2.131325 14.047825 -1.383633
2008-08-05 05:56:27 51°17.074 2°52.697 22.5581 2.131119 14.046339 -1.383633
2008-08-05 05:56:32 51°17.091 2°52.691 22.5602 2.131015 14.045095 -1.383633
2008-08-05 05:56:37 51°17.108 2°52.686 22.5562 2.131015 14.044344 -1.383633
2008-08-05 05:56:42 51°17.125 2°52.68 22.5683 2.130912 14.040846 -1.383633
2008-08-05 05:56:47 51°17.142 2°52.674 22.5549 2.130809 14.03685 -1.383633
2008-08-05 05:56:52 51°17.16 2°52.67 22.5597 2.130809 14.03685 -1.383633
2008-08-05 05:56:57 51°17.177 2°52.666 22.5564 2.130705 14.032106 -1.383633
2008-08-05 05:57:02 51°17.194 2°52.664 22.5631 2.130912 14.030842 -1.418457
2008-08-05 05:57:07 51°17.212 2°52.661 22.5495 2.130809 14.027601 -1.383633
2008-08-05 05:57:12 51°17.23 2°52.661 22.5703 2.131015 14.029585 -1.383633
2008-08-05 05:57:17 51°17.247 2°52.658 22.563 2.130912 14.029343 -1.383633
2008-08-05 05:57:22 51°17.265 2°52.658 22.5688 2.130912 14.029343 -1.383633
2008-08-05 05:57:27 51°17.282 2°52.658 22.566 2.130809 14.0301 -1.383633
2008-08-05 05:57:32 51°17.3 2°52.657 22.5584 2.130705 14.031856 -1.418457
2008-08-05 05:57:37 51°17.318 2°52.657 22.5679 2.130705 14.033607 -1.383633
2008-08-05 05:57:42 51°17.335 2°52.656 22.5677 2.130705 14.038109 -1.383633
2008-08-05 05:57:47 51°17.353 2°52.656 22.5744 2.130602 14.04037 -1.418457
2008-08-05 05:57:52 51°17.371 2°52.655 22.576 2.130602 14.04037 -1.418457
2008-08-05 05:57:57 51°17.389 2°52.654 22.5715 2.130706 14.047876 -1.383633
2008-08-05 05:58:02 51°17.406 2°52.653 22.56 2.130499 14.047392 -1.383633
2008-08-05 05:58:07 51°17.424 2°52.652 22.5845 2.130499 14.048144 -1.383633
2008-08-05 05:58:12 51°17.442 2°52.65 22.5609 2.130292 14.045654 -1.383633
2008-08-05 05:58:17 51°17.46 2°52.651 22.5739 2.130396 14.047651 -1.383633
2008-08-05 05:58:22 51°17.477 2°52.649 22.5699 2.130396 14.047651 -1.383633
2008-08-05 05:58:27 51°17.495 2°52.649 22.5791 2.130396 14.046398 -1.383633
2008-08-05 05:58:32 51°17.512 2°52.647 22.5753 2.130189 14.043658 -1.418457
2008-08-05 05:58:37 51°17.53 2°52.647 22.5826 2.130396 14.044643 -1.418457
2008-08-05 05:58:42 51°17.547 2°52.646 22.5759 2.130189 14.042656 -1.383633
2008-08-05 05:58:47 51°17.565 2°52.644 22.5692 2.130189 14.042906 -1.383633
2008-08-05 05:58:52 51°17.583 2°52.643 22.5815 2.130189 14.042906 -1.383633
2008-08-05 05:58:57 51°17.6 2°52.641 22.5767 2.130086 14.043917 -1.383633
2008-08-05 05:59:02 51°17.618 2°52.641 22.5687 2.129983 14.04593 -1.383633
2008-08-05 05:59:07 51°17.635 2°52.641 22.5704 2.129776 14.04319 -1.418457
2008-08-05 05:59:12 51°17.653 2°52.641 22.5578 2.130396 14.05091 -1.383633
2008-08-05 05:59:17 51°17.67 2°52.645 22.5803 2.130706 14.054897 -1.383633
2008-08-05 05:59:22 51°17.688 2°52.648 22.5745 2.130706 14.054897 -1.383633
2008-08-05 05:59:27 51°17.705 2°52.653 22.5855 2.130603 14.053401 -1.383633
2008-08-05 05:59:32 51°17.722 2°52.658 22.5821 2.130706 14.053141 -1.418457
2008-08-05 05:59:37 51°17.739 2°52.663 22.5792 2.130396 14.048653 -1.383633
2008-08-05 05:59:42 51°17.757 2°52.669 22.5833 2.130189 14.047918 -1.383633
2008-08-05 05:59:47 51°17.774 2°52.674 22.5792 2.130189 14.047417 -1.383633
2008-08-05 05:59:52 51°17.791 2°52.682 22.5898 2.130189 14.047417 -1.383633
2008-08-05 05:59:57 51°17.808 2°52.686 22.573 2.129879 14.045938 -1.418457
2008-08-05 06:00:02 51°17.825 2°52.694 22.5926 2.130189 14.049924 -1.383633
2008-08-05 06:00:07 51°17.842 2°52.699 22.5721 2.129879 14.04669 -1.383633
2008-08-05 06:00:12 51°17.859 2°52.707 22.5871 2.130189 14.052935 -1.383633
2008-08-05 06:00:17 51°17.876 2°52.713 22.5854 2.129776 14.048204 -1.383633
2008-08-05 06:00:22 51°17.894 2°52.718 22.571 2.129776 14.048204 -1.383633
2008-08-05 06:00:27 51°17.91 2°52.726 22.6022 2.129983 14.051196 -1.383633
2008-08-05 06:00:32 51°17.928 2°52.73 22.5776 2.129569 14.046465 -1.383633
2008-08-05 06:00:37 51°17.945 2°52.737 22.6005 2.129879 14.052459 -1.383633
2008-08-05 06:00:42 51°17.962 2°52.741 22.579 2.129363 14.04573 -1.383633
2008-08-05 06:00:47 51°17.979 2°52.747 22.5888 2.12957 14.047719 -1.383633
2008-08-05 06:00:52 51°17.997 2°52.752 22.588 2.12957 14.047719 -1.383633
2008-08-05 06:00:57 51°18.014 2°52.757 22.5861 2.129363 14.044476 -1.418457
2008-08-05 06:01:02 51°18.031 2°52.762 22.5984 2.12926 14.044736 -1.383633
2008-08-05 06:01:07 51°18.048 2°52.767 22.5944 2.129156 14.043741 -1.383633
2008-08-05 06:01:12 51°18.066 2°52.771 22.5946 2.129053 14.043749 -1.383633
2008-08-05 06:01:17 51°18.083 2°52.776 22.5874 2.129053 14.047762 -1.383633
2008-08-05 06:01:22 51°18.101 2°52.781 22.6027 2.129053 14.047762 -1.383633
2008-08-05 06:01:27 51°18.118 2°52.785 22.5896 2.129053 14.050774 -1.383633
2008-08-05 06:01:32 51°18.135 2°52.791 22.6007 2.129053 14.052531 -1.418457
2008-08-05 06:01:37 51°18.153 2°52.795 22.6014 2.12895 14.052038 -1.383633
2008-08-05 06:01:42 51°18.17 2°52.8 22.6064 2.12895 14.052289 -1.383633
2008-08-05 06:01:47 51°18.187 2°52.805 22.595 2.12895 14.053042 -1.383633
2008-08-05 06:01:52 51°18.205 2°52.809 22.5988 2.12895 14.053042 -1.383633
2008-08-05 06:01:57 51°18.222 2°52.812 22.593 2.128743 14.049294 -1.383633
2008-08-05 06:02:02 51°18.239 2°52.816 22.6045 2.12864 14.046041 -1.383633
2008-08-05 06:02:07 51°18.257 2°52.82 22.6003 2.12864 14.044536 -1.383633
2008-08-05 06:02:12 51°18.274 2°52.824 22.5954 2.128537 14.043039 -1.383633
2008-08-05 06:02:17 51°18.292 2°52.827 22.6037 2.128433 14.04054 -1.383633
2008-08-05 06:02:22 51°18.309 2°52.83 22.6072 2.128433 14.04054 -1.383633
2008-08-05 06:02:27 51°18.326 2°52.834 22.5903 2.128227 14.039303 -1.383633
2008-08-05 06:02:32 51°18.344 2°52.838 22.6018 2.12833 14.04105 -1.383633
2008-08-05 06:02:37 51°18.361 2°52.842 22.6077 2.128433 14.046309 -1.418457
2008-08-05 06:02:42 51°18.379 2°52.847 22.6054 2.128433 14.047313 -1.418457
2008-08-05 06:02:47 51°18.396 2°52.849 22.594 2.12833 14.046569 -1.418457
2008-08-05 06:02:52 51°18.414 2°52.855 22.6085 2.12833 14.046569 -1.418457
2008-08-05 06:02:57 51°18.431 2°52.857 22.5984 2.128227 14.045072 -1.383633
2008-08-05 06:03:02 51°18.448 2°52.862 22.61 2.128123 14.042572 -1.383633
2008-08-05 06:03:07 51°18.466 2°52.865 22.5983 2.128123 14.043324 -1.418457
2008-08-05 06:03:12 51°18.483 2°52.87 22.6096 2.128433 14.04656 -1.383633
2008-08-05 06:03:17 51°18.501 2°52.874 22.5959 2.128227 14.043065 -1.383633
2008-08-05 06:03:22 51°18.518 2°52.88 22.5988 2.128227 14.043065 -1.383633
2008-08-05 06:03:27 51°18.535 2°52.886 22.5847 2.128123 14.03856 -1.383633
2008-08-05 06:03:32 51°18.551 2°52.896 22.5973 2.128433 14.042045 -1.418457
2008-08-05 06:03:37 51°18.567 2°52.905 22.5917 2.128846 14.047027 -1.383633
2008-08-05 06:03:42 51°18.583 2°52.918 22.5981 2.128847 14.049034 -1.383633
2008-08-05 06:03:47 51°18.598 2°52.932 22.5995 2.12864 14.050307 -1.383633
2008-08-05 06:03:52 51°18.613 2°52.946 22.5978 2.12864 14.050307 -1.383633
2008-08-05 06:03:57 51°18.627 2°52.962 22.6103 2.128537 14.050567 -1.383633
2008-08-05 06:04:02 51°18.642 2°52.977 22.5984 2.12833 14.049581 -1.418457
2008-08-05 06:04:07 51°18.655 2°52.995 22.611 2.12864 14.052567 -1.383633
2008-08-05 06:04:12 51°18.669 2°53.011 22.6045 2.12833 14.050083 -1.418457
2008-08-05 06:04:17 51°18.682 2°53.03 22.6104 2.12802 14.04534 -1.383633
2008-08-05 06:04:22 51°18.695 2°53.048 22.595 2.12802 14.04534 -1.383633
2008-08-05 06:04:27 51°18.706 2°53.069 22.613 2.128537 14.051572 -1.383633
2008-08-05 06:04:32 51°18.718 2°53.088 22.5999 2.128227 14.049087 -1.383633
2008-08-05 06:04:37 51°18.729 2°53.11 22.6277 2.128433 14.053841 -1.383633
2008-08-05 06:04:42 51°18.74 2°53.13 22.6071 2.128124 14.050603 -1.383633
2008-08-05 06:04:47 51°18.75 2°53.153 22.6354 2.127814 14.048872 -1.383633
2008-08-05 06:04:52 51°18.762 2°53.173 22.6116 2.127814 14.048872 -1.383633
2008-08-05 06:04:57 51°18.771 2°53.197 22.6269 2.127917 14.04811 -1.418457
2008-08-05 06:05:02 51°18.783 2°53.217 22.605 2.127607 14.044371 -1.383633
2008-08-05 06:05:07 51°18.792 2°53.24 22.6367 2.12833 14.05385 -1.383633
2008-08-05 06:05:12 51°18.803 2°53.261 22.616 2.12771 14.046872 -1.383633
2008-08-05 06:05:17 51°18.813 2°53.284 22.6274 2.127917 14.049114 -1.383633
2008-08-05 06:05:22 51°18.824 2°53.305 22.6235 2.127917 14.049114 -1.383633
2008-08-05 06:05:27 51°18.834 2°53.327 22.6252 2.127607 14.046128 -1.418457
2008-08-05 06:05:32 51°18.844 2°53.348 22.6169 2.1274 14.045141 -1.383633
2008-08-05 06:05:37 51°18.854 2°53.37 22.6156 2.127504 14.04689 -1.383633
2008-08-05 06:05:42 51°18.864 2°53.393 22.6386 2.127607 14.049895 -1.418457
2008-08-05 06:05:47 51°18.875 2°53.414 22.6127 2.127297 14.044397 -1.383633
2008-08-05 06:05:52 51°18.885 2°53.437 22.6367 2.127297 14.044397 -1.383633
2008-08-05 06:05:57 51°18.896 2°53.457 22.6223 2.127607 14.049141 -1.418457
2008-08-05 06:06:02 51°18.906 2°53.48 22.6234 2.127504 14.045634 -1.418457
2008-08-05 06:06:07 51°18.917 2°53.501 22.6302 2.12771 14.047123 -1.383633
2008-08-05 06:06:12 51°18.927 2°53.523 22.6198 2.127607 14.046128 -1.383633
2008-08-05 06:06:17 51°18.938 2°53.544 22.6337 2.127297 14.040632 -1.383633
2008-08-05 06:06:22 51°18.948 2°53.567 22.6295 2.127297 14.040632 -1.383633
2008-08-05 06:06:27 51°18.958 2°53.589 22.6356 2.1274 14.038868 -1.383633
2008-08-05 06:06:32 51°18.969 2°53.611 22.6248 2.127297 14.037873 -1.418457
2008-08-05 06:06:37 51°18.979 2°53.633 22.6387 2.1274 14.039119 -1.383633
2008-08-05 06:06:42 51°18.989 2°53.655 22.6455 2.127297 14.03988 -1.383633
2008-08-05 06:06:47 51°19 2°53.677 22.642 2.126987 14.037898 -1.383633
2008-08-05 06:06:52 51°19.011 2°53.697 22.6366 2.126987 14.037898 -1.383633
2008-08-05 06:06:57 51°19.021 2°53.72 22.6362 2.127194 14.041394 -1.383633
2008-08-05 06:07:02 51°19.032 2°53.741 22.6331 2.126987 14.040407 -1.383633
2008-08-05 06:07:07 51°19.042 2°53.763 22.6503 2.1274 14.047401 -1.383633
2008-08-05 06:07:12 51°19.053 2°53.784 22.632 2.127091 14.044665 -1.383633
2008-08-05 06:07:17 51°19.063 2°53.806 22.6448 2.127091 14.045669 -1.383633
2008-08-05 06:07:22 51°19.074 2°53.828 22.6433 2.127091 14.045669 -1.383633
2008-08-05 06:07:27 51°19.085 2°53.85 22.6365 2.126884 14.045687 -1.383633
2008-08-05 06:07:32 51°19.095 2°53.872 22.6441 2.126987 14.04819 -1.383633
2008-08-05 06:07:37 51°19.106 2°53.893 22.6416 2.126781 14.047454 -1.383633
2008-08-05 06:07:42 51°19.116 2°53.915 22.6467 2.126677 14.045705 -1.383633
2008-08-05 06:07:47 51°19.127 2°53.937 22.6501 2.126781 14.046952 -1.418457
2008-08-05 06:07:52 51°19.138 2°53.958 22.6335 2.126781 14.046952 -1.418457
2008-08-05 06:07:57 51°19.148 2°53.98 22.6517 2.126781 14.045947 -1.383633
2008-08-05 06:08:02 51°19.159 2°54.001 22.6409 2.126781 14.046198 -1.383633
2008-08-05 06:08:07 51°19.169 2°54.023 22.6551 2.126781 14.045194 -1.418457
2008-08-05 06:08:12 51°19.18 2°54.045 22.6528 2.126574 14.043453 -1.383633
2008-08-05 06:08:17 51°19.19 2°54.066 22.6516 2.126471 14.041202 -1.383633
2008-08-05 06:08:22 51°19.201 2°54.087 22.6542 2.126471 14.041202 -1.383633
2008-08-05 06:08:27 51°19.211 2°54.109 22.6584 2.126471 14.043211 -1.418457
2008-08-05 06:08:32 51°19.222 2°54.13 22.6477 2.126471 14.044969 -1.383633
2008-08-05 06:08:37 51°19.233 2°54.151 22.6411 2.126368 14.044475 -1.383633
2008-08-05 06:08:42 51°19.245 2°54.173 22.6468 2.126368 14.044727 -1.383633
2008-08-05 06:08:47 51°19.256 2°54.194 22.6406 2.126161 14.042735 -1.383633
2008-08-05 06:08:52 51°19.267 2°54.215 22.6535 2.126161 14.042735 -1.383633
2008-08-05 06:08:57 51°19.278 2°54.237 22.6499 2.126161 14.042735 -1.418457
2008-08-05 06:09:02 51°19.288 2°54.259 22.662 2.126368 14.044727 -1.383633
2008-08-05 06:09:07 51°19.299 2°54.28 22.6528 2.126161 14.043488 -1.383633
2008-08-05 06:09:12 51°19.31 2°54.301 22.6447 2.126264 14.043731 -1.383633
2008-08-05 06:09:17 51°19.321 2°54.323 22.6592 2.126264 14.044735 -1.383633
2008-08-05 06:09:22 51°19.332 2°54.344 22.6558 2.126264 14.044735 -1.383633
2008-08-05 06:09:27 51°19.342 2°54.366 22.6622 2.126058 14.041488 -1.383633
2008-08-05 06:09:32 51°19.353 2°54.387 22.6667 2.126161 14.042735 -1.383633
2008-08-05 06:09:37 51°19.365 2°54.408 22.6512 2.126058 14.040986 -1.383633
2008-08-05 06:09:42 51°19.375 2°54.429 22.6652 2.126264 14.044233 -1.383633
2008-08-05 06:09:47 51°19.387 2°54.45 22.6664 2.126058 14.041739 -1.383633
2008-08-05 06:09:52 51°19.398 2°54.471 22.6621 2.126058 14.041739 -1.383633
2008-08-05 06:09:57 51°19.409 2°54.492 22.6582 2.126161 14.043488 -1.383633
2008-08-05 06:10:02 51°19.42 2°54.513 22.6579 2.126058 14.042492 -1.383633
2008-08-05 06:10:07 51°19.43 2°54.534 22.6592 2.126058 14.041739 -1.383633
2008-08-05 06:10:12 51°19.441 2°54.555 22.6654 2.126161 14.04374 -1.383633
2008-08-05 06:10:17 51°19.452 2°54.577 22.6564 2.126058 14.043246 -1.418457
2008-08-05 06:10:22 51°19.463 2°54.598 22.6584 2.126058 14.043246 -1.418457
2008-08-05 06:10:27 51°19.473 2°54.619 22.6566 2.125851 14.040752 -1.383633
2008-08-05 06:10:32 51°19.484 2°54.64 22.6676 2.125954 14.041999 -1.383633
2008-08-05 06:10:37 51°19.495 2°54.662 22.6666 2.126058 14.044251 -1.383633
2008-08-05 06:10:42 51°19.506 2°54.683 22.66 2.125954 14.043004 -1.418457
2008-08-05 06:10:47 51°19.516 2°54.705 22.672 2.126058 14.045004 -1.418457
2008-08-05 06:10:52 51°19.528 2°54.725 22.6646 2.126058 14.045004 -1.418457
2008-08-05 06:10:57 51°19.539 2°54.746 22.6683 2.125748 14.041263 -1.383633
2008-08-05 06:11:02 51°19.55 2°54.767 22.6778 2.125851 14.042761 -1.418457
2008-08-05 06:11:07 51°19.562 2°54.787 22.6675 2.125748 14.040509 -1.383633
2008-08-05 06:11:12 51°19.573 2°54.808 22.6607 2.125644 14.03876 -1.383633
2008-08-05 06:11:17 51°19.584 2°54.829 22.6771 2.125748 14.039254 -1.383633
2008-08-05 06:11:22 51°19.596 2°54.849 22.6808 2.125748 14.039254 -1.383633
2008-08-05 06:11:27 51°19.607 2°54.871 22.6723 2.125954 14.041497 -1.383633
2008-08-05 06:11:32 51°19.619 2°54.89 22.6618 2.125851 14.039748 -1.383633
2008-08-05 06:11:37 51°19.629 2°54.913 22.673 2.126161 14.04374 -1.383633
2008-08-05 06:11:42 51°19.641 2°54.933 22.6711 2.125851 14.039999 -1.383633
2008-08-05 06:11:47 51°19.651 2°54.955 22.6654 2.125851 14.038994 -1.383633
2008-08-05 06:11:52 51°19.662 2°54.976 22.6753 2.125851 14.038994 -1.383633
2008-08-05 06:11:57 51°19.672 2°54.998 22.6801 2.126058 14.043497 -1.418457
2008-08-05 06:12:02 51°19.683 2°55.019 22.6606 2.125644 14.039765 -1.383633
2008-08-05 06:12:07 51°19.693 2°55.042 22.6834 2.126058 14.044753 -1.383633
2008-08-05 06:12:12 51°19.704 2°55.063 22.6729 2.125748 14.042016 -1.383633
2008-08-05 06:12:17 51°19.714 2°55.085 22.6807 2.125748 14.041012 -1.383633
2008-08-05 06:12:22 51°19.725 2°55.107 22.6785 2.125748 14.041012 -1.383633
2008-08-05 06:12:27 51°19.735 2°55.128 22.6841 2.125541 14.038267 -1.383633
2008-08-05 06:12:32 51°19.746 2°55.15 22.6928 2.125644 14.039011 -1.383633
2008-08-05 06:12:37 51°19.757 2°55.17 22.6735 2.125541 14.038518 -1.383633
2008-08-05 06:12:42 51°19.768 2°55.191 22.6863 2.125541 14.040024 -1.383633
2008-08-05 06:12:47 51°19.779 2°55.211 22.673 2.125438 14.038777 -1.383633
2008-08-05 06:12:52 51°19.79 2°55.232 22.6845 2.125438 14.038777 -1.383633
2008-08-05 06:12:57 51°19.801 2°55.253 22.6825 2.125438 14.038777 -1.383633
2008-08-05 06:13:02 51°19.812 2°55.274 22.6735 2.125541 14.040024 -1.383633
2008-08-05 06:13:07 51°19.822 2°55.295 22.6925 2.125644 14.04102 -1.383633
2008-08-05 06:13:12 51°19.833 2°55.317 22.6934 2.125541 14.039773 -1.418457
2008-08-05 06:13:17 51°19.844 2°55.339 22.6785 2.125334 14.036526 -1.418457
2008-08-05 06:13:22 51°19.854 2°55.361 22.6962 2.125334 14.036526 -1.418457
2008-08-05 06:13:27 51°19.865 2°55.383 22.6923 2.125438 14.03702 -1.383633
2008-08-05 06:13:32 51°19.876 2°55.404 22.6874 2.125334 14.036024 -1.383633
2008-08-05 06:13:37 51°19.886 2°55.426 22.6956 2.125644 14.040518 -1.383633
2008-08-05 06:13:42 51°19.897 2°55.447 22.6808 2.125438 14.039531 -1.383633
2008-08-05 06:13:47 51°19.908 2°55.469 22.6852 2.125644 14.041272 -1.383633
2008-08-05 06:13:52 51°19.918 2°55.491 22.6994 2.125644 14.041272 -1.383633
2008-08-05 06:13:57 51°19.929 2°55.511 22.6807 2.125335 14.038284 -1.383633
2008-08-05 06:14:02 51°19.939 2°55.534 22.6918 2.125644 14.041272 -1.418457
2008-08-05 06:14:07 51°19.95 2°55.555 22.6869 2.125335 14.038535 -1.383633
2008-08-05 06:14:12 51°19.961 2°55.577 22.6945 2.125335 14.038535 -1.383633
2008-08-05 06:14:17 51°19.971 2°55.599 22.7009 2.125438 14.040787 -1.383633
2008-08-05 06:14:22 51°19.982 2°55.62 22.6933 2.125438 14.040787 -1.383633
2008-08-05 06:14:27 51°19.992 2°55.642 22.6954 2.125231 14.03779 -1.383633
2008-08-05 06:14:32 51°20.002 2°55.664 22.7031 2.125335 14.039037 -1.383633
2008-08-05 06:14:37 51°20.013 2°55.685 22.6899 2.125231 14.037539 -1.383633
2008-08-05 06:14:42 51°20.023 2°55.707 22.6998 2.125231 14.037539 -1.383633
2008-08-05 06:14:47 51°20.033 2°55.729 22.6953 2.125128 14.036794 -1.383633
2008-08-05 06:14:52 51°20.044 2°55.75 22.6989 2.125128 14.036794 -1.383633
2008-08-05 06:14:57 51°20.054 2°55.772 22.7056 2.125128 14.037045 -1.383633
2008-08-05 06:15:02 51°20.064 2°55.793 22.7099 2.125231 14.038795 -1.383633
2008-08-05 06:15:07 51°20.075 2°55.815 22.7018 2.125128 14.039054 -1.383633
2008-08-05 06:15:12 51°20.086 2°55.836 22.7068 2.125025 14.037556 -1.418457
2008-08-05 06:15:17 51°20.096 2°55.857 22.6983 2.125128 14.039306 -1.383633
2008-08-05 06:15:22 51°20.107 2°55.878 22.6985 2.125128 14.039306 -1.383633
2008-08-05 06:15:27 51°20.117 2°55.9 22.697 2.124921 14.036058 -1.383633
2008-08-05 06:15:32 51°20.127 2°55.922 22.7169 2.125231 14.040553 -1.383633
2008-08-05 06:15:37 51°20.138 2°55.943 22.6881 2.124818 14.035062 -1.383633
2008-08-05 06:15:42 51°20.147 2°55.965 22.7127 2.125335 14.040795 -1.383633
2008-08-05 06:15:47 51°20.158 2°55.986 22.7153 2.124921 14.035807 -1.383633
2008-08-05 06:15:52 51°20.169 2°56.007 22.7019 2.124921 14.035807 -1.383633
2008-08-05 06:15:57 51°20.178 2°56.028 22.7165 2.125025 14.035548 -1.383633
2008-08-05 06:16:02 51°20.189 2°56.05 22.7076 2.125128 14.036292 -1.383633
2008-08-05 06:16:07 51°20.201 2°56.07 22.7002 2.124715 14.029801 -1.383633
2008-08-05 06:16:12 51°20.211 2°56.092 22.7182 2.125025 14.035297 -1.418457
2008-08-05 06:16:17 51°20.222 2°56.112 22.7069 2.124715 14.03231 -1.383633
2008-08-05 06:16:22 51°20.233 2°56.133 22.7129 2.124715 14.03231 -1.383633
2008-08-05 06:16:27 51°20.244 2°56.153 22.7196 2.125025 14.036552 -1.383633
2008-08-05 06:16:32 51°20.255 2°56.174 22.7159 2.124921 14.037062 -1.383633
2008-08-05 06:16:37 51°20.266 2°56.195 22.7224 2.124921 14.037062 -1.383633
2008-08-05 06:16:42 51°20.277 2°56.215 22.7197 2.124818 14.036569 -1.383633
2008-08-05 06:16:47 51°20.288 2°56.235 22.7167 2.124818 14.035815 -1.383633
2008-08-05 06:16:52 51°20.299 2°56.256 22.7254 2.124818 14.035815 -1.383633
2008-08-05 06:16:57 51°20.311 2°56.275 22.707 2.124715 14.035322 -1.383633
2008-08-05 06:17:02 51°20.321 2°56.296 22.7166 2.124818 14.035313 -1.418457
2008-08-05 06:17:07 51°20.333 2°56.316 22.7161 2.124818 14.035815 -1.383633
2008-08-05 06:17:12 51°20.344 2°56.337 22.7242 2.125128 14.039557 -1.383633
2008-08-05 06:17:17 51°20.355 2°56.358 22.725 2.124611 14.033322 -1.383633
2008-08-05 06:17:22 51°20.367 2°56.378 22.7026 2.124611 14.033322 -1.383633
2008-08-05 06:17:27 51°20.376 2°56.4 22.7294 2.124921 14.036811 -1.383633
2008-08-05 06:17:32 51°20.388 2°56.421 22.7166 2.124715 14.033564 -1.383633
2008-08-05 06:17:37 51°20.398 2°56.442 22.7264 2.124921 14.034552 -1.383633
2008-08-05 06:17:42 51°20.408 2°56.464 22.7369 2.124818 14.032552 -1.383633
2008-08-05 06:17:47 51°20.419 2°56.485 22.7116 2.124818 14.03205 -1.383633
2008-08-05 06:17:52 51°20.428 2°56.507 22.7442 2.124818 14.03205 -1.383633
2008-08-05 06:17:57 51°20.44 2°56.527 22.7218 2.124715 14.032811 -1.418457
2008-08-05 06:18:02 51°20.45 2°56.549 22.7244 2.124715 14.031808 -1.383633
2008-08-05 06:18:07 51°20.46 2°56.571 22.7288 2.124818 14.035564 -1.383633
2008-08-05 06:18:12 51°20.471 2°56.592 22.7179 2.124715 14.032811 -1.383633
2008-08-05 06:18:17 51°20.479 2°56.615 22.7359 2.124818 14.034309 -1.383633
2008-08-05 06:18:22 51°20.49 2°56.636 22.7281 2.124818 14.034309 -1.383633
2008-08-05 06:18:27 51°20.499 2°56.66 22.7408 2.124715 14.032561 -1.383633
2008-08-05 06:18:32 51°20.51 2°56.681 22.7259 2.124508 14.031573 -1.383633
2008-08-05 06:18:37 51°20.519 2°56.704 22.7285 2.124921 14.036811 -1.383633
2008-08-05 06:18:42 51°20.528 2°56.726 22.74 2.124818 14.038327 -1.383633
2008-08-05 06:18:47 51°20.539 2°56.748 22.7208 2.124818 14.039583 -1.383633
2008-08-05 06:18:52 51°20.548 2°56.771 22.7486 2.124818 14.039583 -1.383633
2008-08-05 06:18:57 51°20.558 2°56.792 22.7324 2.124508 14.037348 -1.383633
2008-08-05 06:19:02 51°20.568 2°56.815 22.7521 2.124405 14.035347 -1.383633
2008-08-05 06:19:07 51°20.578 2°56.836 22.7339 2.124302 14.0341 -1.383633
2008-08-05 06:19:12 51°20.588 2°56.859 22.7527 2.124302 14.0341 -1.383633
2008-08-05 06:19:17 51°20.599 2°56.879 22.7374 2.124198 14.033606 -1.383633
2008-08-05 06:19:22 51°20.609 2°56.901 22.7489 2.124198 14.033606 -1.383633
2008-08-05 06:19:27 51°20.62 2°56.922 22.7514 2.124198 14.033857 -1.383633
2008-08-05 06:19:32 51°20.631 2°56.943 22.7479 2.124198 14.034108 -1.383633
2008-08-05 06:19:37 51°20.641 2°56.965 22.7441 2.124095 14.033615 -1.383633
2008-08-05 06:19:42 51°20.652 2°56.986 22.7331 2.123992 14.03287 -1.383633
2008-08-05 06:19:47 51°20.662 2°57.008 22.7546 2.124198 14.03662 -1.383633
2008-08-05 06:19:52 51°20.673 2°57.029 22.7483 2.124198 14.03662 -1.383633
2008-08-05 06:19:57 51°20.682 2°57.051 22.7493 2.124198 14.036871 -1.383633
2008-08-05 06:20:02 51°20.693 2°57.072 22.7406 2.124198 14.037625 -1.383633
2008-08-05 06:20:07 51°20.703 2°57.094 22.7503 2.124095 14.036126 -1.383633
2008-08-05 06:20:12 51°20.713 2°57.115 22.7526 2.124095 14.036126 -1.383633
2008-08-05 06:20:17 51°20.724 2°57.137 22.7476 2.124095 14.035373 -1.383633
2008-08-05 06:20:22 51°20.734 2°57.159 22.7544 2.124095 14.035373 -1.383633
2008-08-05 06:20:27 51°20.745 2°57.18 22.7493 2.124198 14.035866 -1.383633
2008-08-05 06:20:32 51°20.755 2°57.2 22.7548 2.123992 14.033121 -1.418457
2008-08-05 06:20:37 51°20.765 2°57.222 22.7559 2.124095 14.034368 -1.418457
2008-08-05 06:20:42 51°20.777 2°57.242 22.7394 2.123682 14.028878 -1.383633
2008-08-05 06:20:47 51°20.787 2°57.264 22.7599 2.124405 14.037608 -1.383633
2008-08-05 06:20:52 51°20.798 2°57.284 22.7367 2.124405 14.037608 -1.383633
2008-08-05 06:20:57 51°20.808 2°57.306 22.7586 2.124302 14.035356 -1.383633
2008-08-05 06:21:02 51°20.819 2°57.327 22.7621 2.124405 14.036603 -1.383633
2008-08-05 06:21:07 51°20.829 2°57.348 22.7484 2.124405 14.036352 -1.383633
2008-08-05 06:21:12 51°20.839 2°57.37 22.7713 2.124198 14.033355 -1.383633
2008-08-05 06:21:17 51°20.85 2°57.391 22.7573 2.124198 14.031096 -1.383633
2008-08-05 06:21:22 51°20.86 2°57.413 22.7823 2.124198 14.031096 -1.383633
2008-08-05 06:21:27 51°20.871 2°57.433 22.7436 2.123992 14.026094 -1.383633
2008-08-05 06:21:32 51°20.881 2°57.455 22.7883 2.124301 14.027324 -1.418457
2008-08-05 06:21:37 51°20.892 2°57.475 22.7559 2.123785 14.022348 -1.383633
2008-08-05 06:21:42 51°20.903 2°57.497 22.7678 2.123992 14.026094 -1.383633
2008-08-05 06:21:47 51°20.913 2°57.518 22.7661 2.123992 14.030861 -1.418457
2008-08-05 06:21:52 51°20.924 2°57.538 22.774 2.123992 14.030861 -1.418457
2008-08-05 06:21:57 51°20.934 2°57.56 22.7747 2.123992 14.033623 -1.383633
2008-08-05 06:22:02 51°20.945 2°57.58 22.7589 2.123682 14.032644 -1.383633
2008-08-05 06:22:07 51°20.956 2°57.601 22.7705 2.123889 14.038154 -1.418457
2008-08-05 06:22:12 51°20.967 2°57.621 22.7515 2.123682 14.037166 -1.383633
2008-08-05 06:22:17 51°20.977 2°57.643 22.7707 2.123992 14.043173 -1.383633
2008-08-05 06:22:22 51°20.989 2°57.664 22.7567 2.123992 14.043173 -1.383633
2008-08-05 06:22:27 51°20.998 2°57.686 22.7849 2.124095 14.043415 -1.383633
2008-08-05 06:22:32 51°21.009 2°57.707 22.7811 2.123992 14.043173 -1.383633
2008-08-05 06:22:37 51°21.02 2°57.728 22.7659 2.123682 14.037668 -1.383633
2008-08-05 06:22:42 51°21.029 2°57.751 22.7931 2.123992 14.042419 -1.383633
2008-08-05 06:22:47 51°21.041 2°57.77 22.7516 2.123889 14.039159 -1.383633
2008-08-05 06:22:52 51°21.05 2°57.793 22.7911 2.123889 14.039159 -1.383633
2008-08-05 06:22:57 51°21.061 2°57.813 22.7755 2.123992 14.040156 -1.383633
2008-08-05 06:23:02 51°21.071 2°57.835 22.7789 2.123785 14.032635 -1.383633
2008-08-05 06:23:07 51°21.082 2°57.857 22.7823 2.123888 14.032125 -1.383633
2008-08-05 06:23:12 51°21.093 2°57.878 22.7844 2.123682 14.027623 -1.383633
2008-08-05 06:23:17 51°21.103 2°57.899 22.7777 2.123682 14.027874 -1.383633
2008-08-05 06:23:22 51°21.114 2°57.92 22.7874 2.123682 14.027874 -1.383633
2008-08-05 06:23:27 51°21.124 2°57.941 22.7891 2.123682 14.029129 -1.383633
2008-08-05 06:23:32 51°21.135 2°57.962 22.7924 2.123682 14.032141 -1.383633
2008-08-05 06:23:37 51°21.146 2°57.982 22.7932 2.123682 14.036161 -1.383633
2008-08-05 06:23:42 51°21.156 2°58.004 22.7907 2.123475 14.035424 -1.383633
2008-08-05 06:23:47 51°21.168 2°58.023 22.7614 2.123682 14.036914 -1.383633
2008-08-05 06:23:52 51°21.177 2°58.046 22.8094 2.123682 14.036914 -1.383633
2008-08-05 06:23:57 51°21.189 2°58.065 22.7721 2.123682 14.039428 -1.383633
2008-08-05 06:24:02 51°21.2 2°58.086 22.7871 2.123475 14.037686 -1.418457
2008-08-05 06:24:07 51°21.21 2°58.107 22.781 2.123682 14.042446 -1.383633
2008-08-05 06:24:12 51°21.221 2°58.128 22.7815 2.123682 14.044207 -1.383633
2008-08-05 06:24:17 51°21.231 2°58.149 22.7895 2.123579 14.043713 -1.383633
2008-08-05 06:24:22 51°21.242 2°58.17 22.7932 2.123579 14.043713 -1.383633
2008-08-05 06:24:27 51°21.252 2°58.191 22.7971 2.123475 14.043219 -1.383633
2008-08-05 06:24:32 51°21.263 2°58.212 22.7816 2.123475 14.041961 -1.383633
2008-08-05 06:24:37 51°21.274 2°58.233 22.7866 2.123165 14.037209 -1.418457
2008-08-05 06:24:42 51°21.285 2°58.254 22.7809 2.123475 14.03844 -1.383633
2008-08-05 06:24:47 51°21.295 2°58.275 22.7983 2.123062 14.032192 -1.383633
2008-08-05 06:24:52 51°21.306 2°58.296 22.7727 2.123062 14.032192 -1.383633
2008-08-05 06:24:57 51°21.316 2°58.318 22.8121 2.123475 14.037435 -1.383633
2008-08-05 06:25:02 51°21.326 2°58.34 22.8005 2.123165 14.035953 -1.383633
2008-08-05 06:25:07 51°21.337 2°58.361 22.7922 2.123165 14.034947 -1.383633
2008-08-05 06:25:12 51°21.347 2°58.383 22.811 2.123062 14.03571 -1.383633
2008-08-05 06:25:17 51°21.358 2°58.403 22.7831 2.123165 14.037209 -1.383633
2008-08-05 06:25:22 51°21.367 2°58.425 22.8025 2.123165 14.037209 -1.383633
2008-08-05 06:25:27 51°21.378 2°58.446 22.7895 2.122959 14.036473 -1.383633
2008-08-05 06:25:32 51°21.388 2°58.468 22.8034 2.123062 14.037973 -1.383633
2008-08-05 06:25:37 51°21.399 2°58.489 22.7848 2.122959 14.036221 -1.383633
2008-08-05 06:25:42 51°21.409 2°58.511 22.8052 2.123166 14.041233 -1.383633
2008-08-05 06:25:47 51°21.419 2°58.532 22.7913 2.123062 14.039481 -1.383633
2008-08-05 06:25:52 51°21.429 2°58.554 22.8106 2.123062 14.039481 -1.383633
2008-08-05 06:25:57 51°21.44 2°58.575 22.8087 2.123269 14.041727 -1.383633
2008-08-05 06:26:02 51°21.45 2°58.596 22.7905 2.122959 14.036976 -1.418457
2008-08-05 06:26:07 51°21.459 2°58.619 22.8318 2.123372 14.042724 -1.383633
2008-08-05 06:26:12 51°21.471 2°58.639 22.7897 2.122856 14.034219 -1.383633
2008-08-05 06:26:17 51°21.48 2°58.662 22.8364 2.123165 14.036204 -1.383633
2008-08-05 06:26:22 51°21.492 2°58.681 22.7983 2.123165 14.036204 -1.383633
2008-08-05 06:26:27 51°21.502 2°58.704 22.8264 2.123269 14.034185 -1.383633
2008-08-05 06:26:32 51°21.513 2°58.724 22.8097 2.122855 14.02819 -1.383633
2008-08-05 06:26:37 51°21.523 2°58.745 22.8191 2.122959 14.026174 -1.383633
2008-08-05 06:26:42 51°21.535 2°58.765 22.809 2.122649 14.022433 -1.383633
2008-08-05 06:26:47 51°21.545 2°58.786 22.8091 2.123165 14.026409 -1.418457
2008-08-05 06:26:52 51°21.555 2°58.808 22.8214 2.123165 14.026409 -1.418457
2008-08-05 06:26:57 51°21.566 2°58.829 22.8097 2.123062 14.027421 -1.383633
2008-08-05 06:27:02 51°21.576 2°58.85 22.8174 2.122855 14.027688 -1.383633
2008-08-05 06:27:07 51°21.587 2°58.871 22.8205 2.122752 14.030459 -1.383633
2008-08-05 06:27:12 51°21.597 2°58.892 22.823 2.122752 14.035485 -1.383633
2008-08-05 06:27:17 51°21.608 2°58.912 22.8178 2.122856 14.041512 -1.418457
2008-08-05 06:27:22 51°21.618 2°58.934 22.8272 2.122856 14.041512 -1.418457
2008-08-05 06:27:27 51°21.629 2°58.954 22.8131 2.122752 14.042276 -1.383633
2008-08-05 06:27:32 51°21.639 2°58.976 22.8187 2.122649 14.040524 -1.383633
2008-08-05 06:27:37 51°21.65 2°58.997 22.8174 2.122752 14.042528 -1.383633
2008-08-05 06:27:42 51°21.661 2°59.018 22.8221 2.122752 14.042024 -1.383633
2008-08-05 06:27:47 51°21.671 2°59.039 22.8245 2.122649 14.04153 -1.383633
2008-08-05 06:27:52 51°21.682 2°59.06 22.8282 2.122649 14.04153 -1.383633
2008-08-05 06:27:57 51°21.693 2°59.081 22.8294 2.122649 14.042034 -1.418457
2008-08-05 06:28:02 51°21.703 2°59.103 22.8315 2.122856 14.045036 -1.383633
2008-08-05 06:28:07 51°21.714 2°59.122 22.8064 2.122546 14.041288 -1.383633
2008-08-05 06:28:12 51°21.724 2°59.144 22.8347 2.122856 14.045539 -1.383633
2008-08-05 06:28:17 51°21.735 2°59.165 22.8269 2.122236 14.037037 -1.383633
2008-08-05 06:28:22 51°21.746 2°59.185 22.8144 2.122236 14.037037 -1.383633
2008-08-05 06:28:27 51°21.756 2°59.207 22.8582 2.122649 14.041279 -1.383633
2008-08-05 06:28:32 51°21.768 2°59.225 22.8084 2.122236 14.033517 -1.383633
2008-08-05 06:28:37 51°21.778 2°59.247 22.84 2.122649 14.039014 -1.383633
2008-08-05 06:28:42 51°21.79 2°59.267 22.8253 2.122236 14.03402 -1.383633
2008-08-05 06:28:47 51°21.8 2°59.288 22.8362 2.122236 14.032511 -1.418457
2008-08-05 06:28:52 51°21.812 2°59.307 22.8296 2.122236 14.032511 -1.418457
2008-08-05 06:28:57 51°21.822 2°59.328 22.8397 2.122546 14.035754 -1.418457
2008-08-05 06:29:02 51°21.833 2°59.349 22.8304 2.122442 14.034757 -1.418457
2008-08-05 06:29:07 51°21.843 2°59.371 22.8421 2.122546 14.035251 -1.383633
2008-08-05 06:29:12 51°21.854 2°59.391 22.8303 2.122339 14.033257 -1.383633
2008-08-05 06:29:17 51°21.864 2°59.413 22.8282 2.122546 14.036005 -1.383633
2008-08-05 06:29:22 51°21.875 2°59.434 22.8407 2.122546 14.036005 -1.383633
2008-08-05 06:29:27 51°21.885 2°59.455 22.8358 2.122339 14.035017 -1.383633
2008-08-05 06:29:32 51°21.895 2°59.477 22.8467 2.122442 14.036768 -1.383633
2008-08-05 06:29:37 51°21.907 2°59.497 22.8306 2.122339 14.037029 -1.383633
2008-08-05 06:29:42 51°21.916 2°59.519 22.8522 2.122443 14.039787 -1.383633
2008-08-05 06:29:47 51°21.927 2°59.54 22.8278 2.122443 14.040039 -1.383633
2008-08-05 06:29:52 51°21.937 2°59.562 22.85 2.122443 14.040039 -1.383633
2008-08-05 06:29:57 51°21.949 2°59.582 22.8293 2.122236 14.037792 -1.383633
2008-08-05 06:30:02 51°21.958 2°59.604 22.8463 2.122546 14.041791 -1.383633
2008-08-05 06:30:07 51°21.969 2°59.625 22.8437 2.122236 14.038044 -1.383633
2008-08-05 06:30:12 51°21.98 2°59.647 22.8478 2.122339 14.03728 -1.383633
2008-08-05 06:30:17 51°21.99 2°59.667 22.8415 2.122443 14.040039 -1.418457
2008-08-05 06:30:22 51°22.001 2°59.689 22.853 2.122443 14.040039 -1.418457
2008-08-05 06:30:27 51°22.012 2°59.71 22.8532 2.122133 14.037549 -1.383633
2008-08-05 06:30:32 51°22.022 2°59.732 22.8544 2.122443 14.0418 -1.383633
2008-08-05 06:30:37 51°22.033 2°59.752 22.8562 2.122339 14.041558 -1.383633
2008-08-05 06:30:42 51°22.044 2°59.773 22.8553 2.122236 14.04056 -1.383633
2008-08-05 06:30:47 51°22.055 2°59.793 22.8599 2.122029 14.037558 -1.383633
2008-08-05 06:30:52 51°22.066 2°59.813 22.8365 2.122029 14.037558 -1.383633
2008-08-05 06:30:57 51°22.077 2°59.834 22.8524 2.122133 14.037046 -1.383633
2008-08-05 06:31:02 51°22.088 2°59.854 22.8421 2.122133 14.037801 -1.418457
2008-08-05 06:31:07 51°22.099 2°59.875 22.8519 2.122443 14.039284 -1.383633
2008-08-05 06:31:12 51°22.11 2°59.896 22.8676 2.122339 14.038789 -1.383633
2008-08-05 06:31:17 51°22.121 2°59.916 22.8456 2.122339 14.038789 -1.418457
2008-08-05 06:31:22 51°22.131 2°59.937 22.8573 2.122339 14.038789 -1.418457
2008-08-05 06:31:27 51°22.142 2°59.957 22.8614 2.122133 14.037298 -1.383633
2008-08-05 06:31:32 51°22.152 2°59.979 22.8643 2.122339 14.040551 -1.383633
2008-08-05 06:31:37 51°22.163 2°59.999 22.8437 2.122133 14.038053 -1.383633
2008-08-05 06:31:42 51°22.173 3°0.02 22.868 2.122236 14.039553 -1.383633
2008-08-05 06:31:47 51°22.184 3°0.041 22.851 2.122133 14.037801 -1.383633
2008-08-05 06:31:52 51°22.194 3°0.061 22.8568 2.122133 14.037801 -1.383633
2008-08-05 06:31:57 51°22.204 3°0.083 22.8675 2.122236 14.03905 -1.418457
2008-08-05 06:32:02 51°22.215 3°0.103 22.8509 2.122029 14.036049 -1.383633
2008-08-05 06:32:07 51°22.225 3°0.124 22.8771 2.122133 14.037046 -1.383633
2008-08-05 06:32:12 51°22.236 3°0.145 22.8696 2.121926 14.035303 -1.383633
2008-08-05 06:32:17 51°22.248 3°0.165 22.8645 2.121823 14.033049 -1.383633
2008-08-05 06:32:22 51°22.258 3°0.186 22.871 2.121823 14.033049 -1.383633
2008-08-05 06:32:27 51°22.269 3°0.206 22.8737 2.121823 14.033049 -1.383633
2008-08-05 06:32:32 51°22.28 3°0.227 22.8614 2.121719 14.031549 -1.383633
2008-08-05 06:32:37 51°22.291 3°0.247 22.8615 2.121823 14.0333 -1.383633
2008-08-05 06:32:42 51°22.302 3°0.267 22.8604 2.121926 14.034549 -1.383633
2008-08-05 06:32:47 51°22.313 3°0.288 22.8712 2.121926 14.034297 -1.383633
2008-08-05 06:32:52 51°22.323 3°0.309 22.8705 2.121926 14.034297 -1.383633
2008-08-05 06:32:57 51°22.334 3°0.33 22.8528 2.121823 14.033049 -1.383633
2008-08-05 06:33:02 51°22.344 3°0.352 22.8651 2.121926 14.033291 -1.383633
2008-08-05 06:33:07 51°22.354 3°0.373 22.8562 2.121926 14.034549 -1.383633
2008-08-05 06:33:12 51°22.364 3°0.394 22.8618 2.122029 14.035043 -1.383633
2008-08-05 06:33:17 51°22.373 3°0.417 22.8671 2.122133 14.038053 -1.383633
2008-08-05 06:33:22 51°22.382 3°0.44 22.8642 2.122133 14.038053 -1.383633
2008-08-05 06:33:27 51°22.39 3°0.463 22.8709 2.122236 14.038547 -1.383633
2008-08-05 06:33:32 51°22.397 3°0.487 22.8763 2.122236 14.039553 -1.383633
2008-08-05 06:33:37 51°22.406 3°0.51 22.8557 2.121823 14.034809 -1.383633
2008-08-05 06:33:42 51°22.412 3°0.534 22.8742 2.122236 14.040308 -1.383633
2008-08-05 06:33:47 51°22.419 3°0.558 22.8706 2.122029 14.03932 -1.383633
2008-08-05 06:33:52 51°22.427 3°0.581 22.8705 2.122029 14.03932 -1.383633
2008-08-05 06:33:57 51°22.433 3°0.605 22.8837 2.122029 14.038817 -1.383633
2008-08-05 06:34:02 51°22.441 3°0.629 22.8846 2.122029 14.040075 -1.383633
2008-08-05 06:34:07 51°22.448 3°0.652 22.8724 2.121823 14.037073 -1.383633
2008-08-05 06:34:12 51°22.455 3°0.676 22.889 2.121926 14.037316 -1.383633
2008-08-05 06:34:17 51°22.463 3°0.699 22.8767 2.122029 14.038817 -1.383633
2008-08-05 06:34:22 51°22.47 3°0.722 22.883 2.122029 14.038817 -1.383633
2008-08-05 06:34:27 51°22.478 3°0.746 22.8857 2.121926 14.037819 -1.383633
2008-08-05 06:34:32 51°22.485 3°0.769 22.8874 2.121719 14.035824 -1.383633
2008-08-05 06:34:37 51°22.492 3°0.793 22.8875 2.121823 14.037073 -1.418457
2008-08-05 06:34:42 51°22.5 3°0.816 22.8829 2.121616 14.035833 -1.383633
2008-08-05 06:34:47 51°22.508 3°0.839 22.8879 2.121823 14.037828 -1.383633
2008-08-05 06:34:52 51°22.515 3°0.863 22.895 2.121823 14.037828 -1.383633
2008-08-05 06:34:57 51°22.523 3°0.886 22.88 2.121616 14.03533 -1.383633
2008-08-05 06:35:02 51°22.53 3°0.909 22.8938 2.121823 14.03808 -1.383633
2008-08-05 06:35:07 51°22.539 3°0.931 22.8745 2.121616 14.035833 -1.383633
2008-08-05 06:35:12 51°22.546 3°0.955 22.9105 2.121926 14.039329 -1.383633
2008-08-05 06:35:17 51°22.555 3°0.977 22.8776 2.121616 14.035833 -1.383633
2008-08-05 06:35:22 51°22.563 3°1 22.8886 2.121616 14.035833 -1.383633
2008-08-05 06:35:27 51°22.572 3°1.022 22.8973 2.121823 14.038583 -1.383633
2008-08-05 06:35:32 51°22.58 3°1.045 22.8985 2.121823 14.038331 -1.383633
2008-08-05 06:35:37 51°22.589 3°1.067 22.8875 2.121513 14.033829 -1.383633
2008-08-05 06:35:42 51°22.598 3°1.089 22.902 2.121513 14.032572 -1.383633
2008-08-05 06:35:47 51°22.607 3°1.112 22.9058 2.121616 14.034827 -1.383633
2008-08-05 06:35:52 51°22.616 3°1.133 22.8915 2.121616 14.034827 -1.383633
2008-08-05 06:35:57 51°22.625 3°1.156 22.9022 2.121616 14.034827 -1.383633
2008-08-05 06:36:02 51°22.634 3°1.177 22.8989 2.121616 14.035833 -1.383633
2008-08-05 06:36:07 51°22.644 3°1.199 22.8988 2.121513 14.033829 -1.383633
2008-08-05 06:36:12 51°22.654 3°1.221 22.8972 2.121513 14.033326 -1.383633
2008-08-05 06:36:17 51°22.663 3°1.243 22.9134 2.121616 14.03533 -1.383633
2008-08-05 06:36:22 51°22.673 3°1.264 22.887 2.121616 14.03533 -1.383633
2008-08-05 06:36:27 51°22.682 3°1.286 22.8923 2.121513 14.033829 -1.383633
2008-08-05 06:36:32 51°22.691 3°1.309 22.8989 2.121719 14.037082 -1.383633
2008-08-05 06:36:37 51°22.7 3°1.33 22.8995 2.121823 14.038835 -1.383633
2008-08-05 06:36:42 51°22.708 3°1.351 22.8981 2.121926 14.040084 -1.383633
2008-08-05 06:36:47 51°22.716 3°1.372 22.9137 2.12172 14.037837 -1.383633
2008-08-05 06:36:52 51°22.725 3°1.391 22.8985 2.12172 14.037837 -1.383633
2008-08-05 06:36:57 51°22.732 3°1.411 22.9236 2.121719 14.037082 -1.383633
2008-08-05 06:37:02 51°22.74 3°1.428 22.9022 2.121616 14.036085 -1.383633
2008-08-05 06:37:07 51°22.747 3°1.446 22.9154 2.121616 14.035581 -1.383633
2008-08-05 06:37:12 51°22.754 3°1.461 22.9065 2.121616 14.036336 -1.383633
2008-08-05 06:37:17 51°22.76 3°1.476 22.9131 2.121616 14.036085 -1.383633
2008-08-05 06:37:22 51°22.767 3°1.49 22.92 2.121616 14.036085 -1.383633
2008-08-05 06:37:27 51°22.773 3°1.504 22.9133 2.121719 14.037585 -1.383633
2008-08-05 06:37:32 51°22.778 3°1.517 22.9213 2.121616 14.036588 -1.383633
2008-08-05 06:37:37 51°22.784 3°1.529 22.9188 2.121616 14.036588 -1.383633
2008-08-05 06:37:42 51°22.789 3°1.541 22.9117 2.121616 14.036336 -1.383633
2008-08-05 06:37:47 51°22.794 3°1.551 22.9195 2.121719 14.037334 -1.383633
2008-08-05 06:37:52 51°22.799 3°1.562 22.9251 2.121719 14.037334 -1.383633
2008-08-05 06:37:57 51°22.804 3°1.572 22.9302 2.12172 14.03834 -1.383633
2008-08-05 06:38:02 51°22.808 3°1.581 22.936 2.12172 14.038089 -1.418457
2008-08-05 06:38:07 51°22.812 3°1.59 22.9333 2.121513 14.036345 -1.383633
2008-08-05 06:38:12 51°22.817 3°1.598 22.9365 2.121513 14.036345 -1.383633
2008-08-05 06:38:17 51°22.822 3°1.604 22.9431 2.121513 14.036093 -1.418457
2008-08-05 06:38:22 51°22.826 3°1.61 22.945 2.121513 14.036093 -1.418457
2008-08-05 06:38:27 51°22.831 3°1.615 22.9366 2.12141 14.034844 -1.383633
2008-08-05 06:38:32 51°22.836 3°1.62 22.9403 2.121203 14.032095 -1.383633
2008-08-05 06:38:37 51°22.841 3°1.623 22.9454 2.121203 14.031843 -1.383633
2008-08-05 06:38:42 51°22.845 3°1.626 22.947 2.1211 14.030846 -1.383633
2008-08-05 06:38:47 51°22.85 3°1.629 22.9423 2.121203 14.032095 -1.383633
2008-08-05 06:38:52 51°22.855 3°1.63 22.9297 2.121203 14.032095 -1.383633
2008-08-05 06:38:57 51°22.859 3°1.632 22.937 2.1211 14.030846 -1.383633
2008-08-05 06:39:02 51°22.863 3°1.633 22.9339 2.120996 14.029849 -1.383633
2008-08-05 06:39:07 51°22.867 3°1.634 22.9432 2.120996 14.029346 -1.383633
2008-08-05 06:39:12 51°22.871 3°1.634 22.9474 2.120996 14.028592 -1.383633
2008-08-05 06:39:17 51°22.875 3°1.635 22.9485 2.120996 14.028089 -1.383633
2008-08-05 06:39:22 51°22.879 3°1.636 22.9486 2.120996 14.028089 -1.383633
2008-08-05 06:39:27 51°22.882 3°1.636 22.9431 2.1211 14.029086 -1.383633
2008-08-05 06:39:32 51°22.886 3°1.637 22.9486 2.1211 14.029337 -1.383633
2008-08-05 06:39:37 51°22.89 3°1.637 22.9451 2.1211 14.029337 -1.383633
2008-08-05 06:39:42 51°22.893 3°1.638 22.9462 2.1211 14.029086 -1.383633
2008-08-05 06:39:47 51°22.896 3°1.639 22.946 2.121203 14.030083 -1.383633
2008-08-05 06:39:52 51°22.9 3°1.64 22.9542 2.121203 14.030083 -1.383633
2008-08-05 06:39:57 51°22.903 3°1.64 22.9531 2.121203 14.030837 -1.383633
2008-08-05 06:40:02 51°22.907 3°1.64 22.9502 2.1211 14.030595 -1.383633
2008-08-05 06:40:07 51°22.91 3°1.64 22.9438 2.1211 14.030343 -1.383633
2008-08-05 06:40:12 51°22.913 3°1.64 22.9327 2.1211 14.030092 -1.383633
2008-08-05 06:40:17 51°22.916 3°1.64 22.9393 2.121203 14.03134 -1.383633
2008-08-05 06:40:22 51°22.92 3°1.641 22.9496 2.121203 14.03134 -1.383633
2008-08-05 06:40:27 51°22.923 3°1.641 22.9539 2.121203 14.031592 -1.383633
2008-08-05 06:40:32 51°22.926 3°1.641 22.9466 2.1211 14.031098 -1.383633
2008-08-05 06:40:37 51°22.928 3°1.64 22.9434 2.1211 14.030595 -1.383633
2008-08-05 06:40:42 51°22.931 3°1.64 22.9402 2.121203 14.033101 -1.383633
2008-08-05 06:40:47 51°22.934 3°1.64 22.9494 2.1211 14.032104 -1.383633
2008-08-05 06:40:52 51°22.936 3°1.639 22.9545 2.1211 14.032104 -1.383633
2008-08-05 06:40:57 51°22.939 3°1.639 22.9464 2.1211 14.031852 -1.383633
2008-08-05 06:41:02 51°22.942 3°1.639 22.9478 2.1211 14.031349 -1.383633
2008-08-05 06:41:07 51°22.944 3°1.639 22.9557 2.1211 14.031098 -1.383633
2008-08-05 06:41:12 51°22.947 3°1.638 22.955 2.1211 14.030092 -1.383633
2008-08-05 06:41:17 51°22.95 3°1.638 22.9531 2.1211 14.029589 -1.383633
2008-08-05 06:41:22 51°22.952 3°1.638 22.9437 2.1211 14.029589 -1.383633
2008-08-05 06:41:27 51°22.955 3°1.638 22.9583 2.1211 14.028583 -1.383633
2008-08-05 06:41:32 51°22.957 3°1.638 22.9559 2.121203 14.029329 -1.383633
2008-08-05 06:41:37 51°22.959 3°1.637 22.9573 2.1211 14.028583 -1.383633
2008-08-05 06:41:42 51°22.961 3°1.637 22.9543 2.1211 14.028835 -1.383633
2008-08-05 06:41:47 51°22.963 3°1.637 22.9555 2.121203 14.030083 -1.383633
2008-08-05 06:41:52 51°22.964 3°1.636 22.9652 2.121203 14.030083 -1.383633
2008-08-05 06:41:57 51°22.966 3°1.636 22.9645 2.121203 14.031089 -1.383633
2008-08-05 06:42:02 51°22.967 3°1.636 22.9604 2.121203 14.032346 -1.383633
2008-08-05 06:42:07 51°22.969 3°1.636 22.9669 2.1211 14.032104 -1.383633
2008-08-05 06:42:12 51°22.97 3°1.635 22.9671 2.1211 14.032355 -1.383633
2008-08-05 06:42:17 51°22.972 3°1.636 22.97 2.1211 14.032858 -1.383633
2008-08-05 06:42:22 51°22.973 3°1.635 22.9583 2.1211 14.032858 -1.383633
2008-08-05 06:42:27 51°22.975 3°1.635 22.9703 2.1211 14.03311 -1.383633
2008-08-05 06:42:32 51°22.976 3°1.634 22.9708 2.120996 14.032364 -1.383633
2008-08-05 06:42:37 51°22.977 3°1.634 22.9698 2.120996 14.032364 -1.383633
2008-08-05 06:42:42 51°22.979 3°1.633 22.9696 2.120996 14.032615 -1.383633
2008-08-05 06:42:47 51°22.98 3°1.633 22.9677 2.120996 14.033119 -1.383633
2008-08-05 06:42:52 51°22.981 3°1.632 22.9722 2.120996 14.033119 -1.383633
2008-08-05 06:42:57 51°22.983 3°1.632 22.9673 2.120996 14.033622 -1.383633
2008-08-05 06:43:02 51°22.984 3°1.632 22.9728 2.120893 14.032373 -1.383633
2008-08-05 06:43:07 51°22.985 3°1.631 22.9736 2.120893 14.031366 -1.383633
2008-08-05 06:43:12 51°22.986 3°1.631 22.9639 2.120893 14.031115 -1.383633
2008-08-05 06:43:17 51°22.987 3°1.63 22.964 2.120996 14.032112 -1.383633
2008-08-05 06:43:22 51°22.988 3°1.629 22.9704 2.120996 14.032112 -1.383633
2008-08-05 06:43:27 51°22.989 3°1.629 22.9734 2.120893 14.031366 -1.383633
2008-08-05 06:43:32 51°22.991 3°1.629 22.9754 2.120893 14.031869 -1.383633
2008-08-05 06:43:37 51°22.992 3°1.628 22.9755 2.120893 14.032121 -1.383633
2008-08-05 06:43:42 51°22.993 3°1.628 22.9772 2.120893 14.032876 -1.383633
2008-08-05 06:43:47 51°22.994 3°1.627 22.9788 2.120893 14.033127 -1.383633
2008-08-05 06:43:52 51°22.995 3°1.626 22.9653 2.120893 14.033127 -1.383633
2008-08-05 06:43:57 51°22.996 3°1.626 22.9653 2.120893 14.034134 -1.383633
2008-08-05 06:44:02 51°22.997 3°1.626 22.9699 2.12079 14.033388 -1.383633
2008-08-05 06:44:07 51°22.998 3°1.625 22.9765 2.120893 14.03514 -1.383633
2008-08-05 06:44:12 51°22.998 3°1.625 22.9716 2.12079 14.034646 -1.383633
2008-08-05 06:44:17 51°22.999 3°1.624 22.9667 2.120893 14.035644 -1.383633
2008-08-05 06:44:22 51°23 3°1.623 22.978 2.120893 14.035644 -1.383633
2008-08-05 06:44:27 51°23.001 3°1.623 22.978 2.12079 14.034646 -1.383633
2008-08-05 06:44:32 51°23.002 3°1.622 22.9859 2.12079 14.034394 -1.383633
2008-08-05 06:44:37 51°23.003 3°1.622 22.9849 2.12079 14.034143 -1.383633
2008-08-05 06:44:42 51°23.004 3°1.621 22.9822 2.120687 14.033145 -1.383633
2008-08-05 06:44:47 51°23.004 3°1.621 22.988 2.120687 14.033145 -1.383633
2008-08-05 06:44:52 51°23.005 3°1.62 22.985 2.120687 14.033145 -1.383633
2008-08-05 06:44:57 51°23.006 3°1.62 22.9907 2.120687 14.033145 -1.383633
2008-08-05 06:45:02 51°23.007 3°1.62 22.9834 2.120687 14.033145 -1.383633
2008-08-05 06:45:07 51°23.008 3°1.619 22.9866 2.120687 14.032642 -1.383633
2008-08-05 06:45:12 51°23.009 3°1.619 22.976 2.120687 14.033397 -1.383633
2008-08-05 06:45:17 51°23.009 3°1.619 22.9823 2.120687 14.033145 -1.383633
2008-08-05 06:45:22 51°23.01 3°1.618 22.99 2.120583 14.032651 -1.383633
2008-08-05 06:45:27 51°23.011 3°1.618 22.9924 2.120583 14.032651 -1.383633
2008-08-05 06:45:32 51°23.012 3°1.618 22.984 2.120583 14.032399 -1.383633
2008-08-05 06:45:37 51°23.013 3°1.617 22.984 2.120583 14.031896 -1.383633
2008-08-05 06:45:42 51°23.013 3°1.617 22.9892 2.120687 14.032893 -1.383633
2008-08-05 06:45:47 51°23.014 3°1.616 22.9943 2.120583 14.031896 -1.383633
2008-08-05 06:45:52 51°23.015 3°1.616 22.9908 2.120583 14.031896 -1.383633
2008-08-05 06:45:57 51°23.015 3°1.616 22.9926 2.120583 14.032147 -1.383633
2008-08-05 06:46:02 51°23.016 3°1.615 22.9884 2.12048 14.030646 -1.383633
2008-08-05 06:46:07 51°23.017 3°1.615 22.9977 2.12048 14.03115 -1.383633
2008-08-05 06:46:12 51°23.018 3°1.615 22.9976 2.12048 14.030898 -1.383633
2008-08-05 06:46:17 51°23.018 3°1.614 23.0022 2.12048 14.03115 -1.383633
2008-08-05 06:46:22 51°23.019 3°1.614 23.004 2.12048 14.03115 -1.383633
2008-08-05 06:46:27 51°23.019 3°1.614 23.0034 2.12048 14.031904 -1.383633
2008-08-05 06:46:32 51°23.02 3°1.613 22.9935 2.120377 14.031662 -1.383633
2008-08-05 06:46:37 51°23.021 3°1.613 22.9967 2.120377 14.031158 -1.383633
2008-08-05 06:46:42 51°23.021 3°1.613 22.9935 2.120377 14.031662 -1.383633
2008-08-05 06:46:47 51°23.022 3°1.613 22.9983 2.120377 14.031158 -1.383633
2008-08-05 06:46:52 51°23.023 3°1.612 23.0031 2.120273 14.029909 -1.383633
2008-08-05 06:46:57 51°23.023 3°1.612 23.0016 2.120273 14.029909 -1.383633
2008-08-05 06:47:02 51°23.024 3°1.611 23.0028 2.120273 14.029406 -1.383633
2008-08-05 06:47:07 51°23.024 3°1.611 23.0041 2.120273 14.029154 -1.383633
2008-08-05 06:47:12 51°23.025 3°1.61 23 2.120273 14.030161 -1.383633
2008-08-05 06:47:17 51°23.026 3°1.61 23.0002 2.120273 14.030412 -1.383633
2008-08-05 06:47:22 51°23.026 3°1.61 23.011 2.120273 14.030412 -1.383633
2008-08-05 06:47:27 51°23.027 3°1.61 23.004 2.120273 14.031167 -1.383633
2008-08-05 06:47:32 51°23.028 3°1.609 23.0057 2.12017 14.030169 -1.383633
2008-08-05 06:47:37 51°23.028 3°1.609 23.0116 2.120273 14.032174 -1.383633
2008-08-05 06:47:42 51°23.029 3°1.609 23.0101 2.120273 14.031922 -1.383633
2008-08-05 06:47:47 51°23.03 3°1.608 23.0104 2.12017 14.030924 -1.383633
2008-08-05 06:47:52 51°23.031 3°1.608 23.0033 2.12017 14.030924 -1.383633
2008-08-05 06:47:57 51°23.031 3°1.608 23.0117 2.12017 14.030421 -1.383633
2008-08-05 06:48:02 51°23.032 3°1.608 23.0211 2.12017 14.030673 -1.383633
2008-08-05 06:48:07 51°23.033 3°1.607 23.0107 2.12017 14.030924 -1.383633
2008-08-05 06:48:12 51°23.033 3°1.607 23.0134 2.12017 14.031176 -1.383633
2008-08-05 06:48:17 51°23.034 3°1.607 23.0161 2.120067 14.030681 -1.383633
2008-08-05 06:48:22 51°23.035 3°1.606 23.0108 2.120067 14.030681 -1.383633
2008-08-05 06:48:27 51°23.035 3°1.606 23.0231 2.120067 14.030681 -1.383633
2008-08-05 06:48:32 51°23.036 3°1.605 23.0251 2.120067 14.030933 -1.383633
2008-08-05 06:48:37 51°23.037 3°1.605 23.0175 2.120067 14.031185 -1.383633
2008-08-05 06:48:42 51°23.037 3°1.605 23.0125 2.120067 14.031185 -1.383633
2008-08-05 06:48:47 51°23.038 3°1.605 23.0096 2.119963 14.029684 -1.383633
2008-08-05 06:48:52 51°23.039 3°1.604 23.0126 2.119963 14.029684 -1.383633
2008-08-05 06:48:57 51°23.04 3°1.604 23.0277 2.119963 14.02918 -1.383633
2008-08-05 06:49:02 51°23.04 3°1.603 23.0289 2.120067 14.030178 -1.383633
2008-08-05 06:49:07 51°23.041 3°1.603 23.0296 2.119963 14.02918 -1.383633
2008-08-05 06:49:12 51°23.042 3°1.602 23.0227 2.119963 14.029432 -1.383633
2008-08-05 06:49:17 51°23.043 3°1.602 23.0214 2.119963 14.029432 -1.383633
2008-08-05 06:49:22 51°23.043 3°1.601 23.0232 2.119963 14.029432 -1.383633
2008-08-05 06:49:27 51°23.044 3°1.601 23.0168 2.119963 14.029684 -1.383633
2008-08-05 06:49:32 51°23.045 3°1.6 23.0183 2.119963 14.028929 -1.383633
2008-08-05 06:49:37 51°23.045 3°1.6 23.0166 2.119963 14.029935 -1.383633
2008-08-05 06:49:42 51°23.046 3°1.6 23.031 2.119963 14.029935 -1.383633
2008-08-05 06:49:47 51°23.047 3°1.599 22.9875 2.119963 14.029935 -1.383633
2008-08-05 06:49:52 51°23.048 3°1.599 22.9908 2.119963 14.029935 -1.383633
2008-08-05 06:49:57 51°23.048 3°1.599 23.0088 2.11955 14.021921 -1.383633
2008-08-05 06:50:02 51°23.049 3°1.598 23.0058 2.119447 14.02193 -1.383633
2008-08-05 06:50:07 51°23.05 3°1.598 23.0108 2.119963 14.030187 -1.383633
2008-08-05 06:50:12 51°23.05 3°1.597 23.0108 2.119963 14.030438 -1.383633
2008-08-05 06:50:17 51°23.051 3°1.597 23.0121 2.11986 14.028686 -1.383633
2008-08-05 06:50:22 51°23.052 3°1.596 23.0124 2.11986 14.028686 -1.383633
2008-08-05 06:50:27 51°23.053 3°1.596 23.0131 2.119757 14.025928 -1.383633
2008-08-05 06:50:32 51°23.053 3°1.595 23.0149 2.119757 14.02467 -1.383633
2008-08-05 06:50:37 51°23.054 3°1.595 23.0153 2.119653 14.023673 -1.383633
2008-08-05 06:50:42 51°23.055 3°1.594 23.0171 2.119653 14.023673 -1.383633
2008-08-05 06:50:47 51°23.055 3°1.594 23.0181 2.119654 14.024679 -1.383633
2008-08-05 06:50:52 51°23.056 3°1.594 23.0198 2.119654 14.024679 -1.383633
2008-08-05 06:50:57 51°23.057 3°1.593 23.0217 2.119654 14.025684 -1.383633
2008-08-05 06:51:02 51°23.058 3°1.593 23.0237 2.119654 14.027697 -1.383633
2008-08-05 06:51:07 51°23.06 3°1.592 23.0211 2.11955 14.027957 -1.383633
2008-08-05 06:51:12 51°23.062 3°1.592 23.0249 2.11955 14.028712 -1.383633
2008-08-05 06:51:17 51°23.064 3°1.59 23.0222 2.119447 14.027714 -1.383633
2008-08-05 06:51:22 51°23.067 3°1.59 23.0256 2.119447 14.027714 -1.383633
2008-08-05 06:51:27 51°23.071 3°1.589 23.0227 2.119447 14.027966 -1.383633
2008-08-05 06:51:32 51°23.075 3°1.59 23.0276 2.119344 14.026968 -1.383633
2008-08-05 06:51:37 51°23.079 3°1.59 23.0229 2.119344 14.027471 -1.383633
2008-08-05 06:51:42 51°23.084 3°1.592 23.024 2.119344 14.027723 -1.383633
2008-08-05 06:51:47 51°23.088 3°1.594 23.0262 2.119344 14.028478 -1.383633
2008-08-05 06:51:52 51°23.093 3°1.598 23.0269 2.119344 14.028478 -1.383633
2008-08-05 06:51:57 51°23.097 3°1.602 23.0256 2.11924 14.027983 -1.383633
2008-08-05 06:52:02 51°23.1 3°1.607 23.0287 2.11924 14.029241 -1.383633
2008-08-05 06:52:07 51°23.103 3°1.613 23.0327 2.11924 14.029745 -1.383633
2008-08-05 06:52:12 51°23.106 3°1.619 23.0349 2.119344 14.031247 -1.383633
2008-08-05 06:52:17 51°23.108 3°1.625 23.0416 2.11924 14.030248 -1.383633
2008-08-05 06:52:22 51°23.109 3°1.632 23.0471 2.11924 14.029241 -1.383633
2008-08-05 06:52:27 51°23.11 3°1.639 23.0497 2.11924 14.029241 -1.383633
2008-08-05 06:52:32 51°23.11 3°1.647 23.0497 2.11924 14.029493 -1.383633
2008-08-05 06:52:37 51°23.109 3°1.654 23.0498 2.119344 14.031247 -1.383633
2008-08-05 06:52:42 51°23.107 3°1.661 23.0504 2.119344 14.031498 -1.383633
2008-08-05 06:52:47 51°23.105 3°1.667 23.051 2.119447 14.032245 -1.383633
2008-08-05 06:52:52 51°23.102 3°1.673 23.0523 2.119447 14.032245 -1.383633
2008-08-05 06:52:57 51°23.099 3°1.678 23.0533 2.119344 14.031498 -1.383633
2008-08-05 06:53:02 51°23.095 3°1.681 23.0541 2.119654 14.035249 -1.383633
2008-08-05 06:53:07 51°23.092 3°1.685 23.0542 2.11986 14.039009 -1.383633
2008-08-05 06:53:12 51°23.089 3°1.687 23.0618 2.119964 14.04152 -1.383633
2008-08-05 06:53:17 51°23.086 3°1.69 23.0649 2.119964 14.042277 -1.383633
2008-08-05 06:53:22 51°23.083 3°1.692 23.0679 2.119964 14.042277 -1.383633
2008-08-05 06:53:27 51°23.081 3°1.695 23.0756 2.120067 14.043024 -1.383633